<?xml version="1.0" encoding="UTF-8" standalone="no" ?>
<gpx xmlns="http://www.topografix.com/GPX/1/1" xmlns:xsi="http://www.w3.org/2001/XMLSchema-instance" xsi:schemaLocation="http://www.topografix.com/GPX/1/1 http://www.topografix.com/GPX/1/1/gpx.xsd" version="1.1" creator="VisuGPX - https://www.visugpx.com">
  <metadata>
    <name>Locunolé - Ty Nadan</name>
    <desc><![CDATA[superbe boucle en vallée de l'Ellé]]></desc>
  </metadata>
  <trk>
    <name><![CDATA[OR-5751147--Locunolé:boucle au Sud de Locunolé]]></name>
    <trkseg>
      <trkpt lat="47.93962" lon="-3.44887">
        <ele>93</ele>
        <time>2017-01-13T22:21:00Z</time>
      </trkpt>
      <trkpt lat="47.93899" lon="-3.44887">
        <ele>94</ele>
        <time>2017-01-13T22:23:00Z</time>
      </trkpt>
      <trkpt lat="47.93884" lon="-3.44895">
        <ele>96</ele>
        <time>2017-01-13T22:25:00Z</time>
      </trkpt>
      <trkpt lat="47.93876" lon="-3.44902">
        <ele>97</ele>
        <time>2017-01-13T22:27:00Z</time>
      </trkpt>
      <trkpt lat="47.93867" lon="-3.44915">
        <ele>98</ele>
        <time>2017-01-13T22:29:00Z</time>
      </trkpt>
      <trkpt lat="47.93863" lon="-3.44926">
        <ele>98</ele>
        <time>2017-01-13T22:31:00Z</time>
      </trkpt>
      <trkpt lat="47.93861" lon="-3.44936">
        <ele>98</ele>
        <time>2017-01-13T22:33:00Z</time>
      </trkpt>
      <trkpt lat="47.93844" lon="-3.44996">
        <ele>100</ele>
        <time>2017-01-13T22:35:00Z</time>
      </trkpt>
      <trkpt lat="47.93841" lon="-3.45003">
        <ele>100</ele>
        <time>2017-01-13T22:37:00Z</time>
      </trkpt>
      <trkpt lat="47.93836" lon="-3.4501">
        <ele>100</ele>
        <time>2017-01-13T22:39:00Z</time>
      </trkpt>
      <trkpt lat="47.93831" lon="-3.45">
        <ele>101</ele>
        <time>2017-01-13T22:41:00Z</time>
      </trkpt>
      <trkpt lat="47.93836" lon="-3.4501">
        <ele>100</ele>
        <time>2017-01-13T22:43:00Z</time>
      </trkpt>
      <trkpt lat="47.93828" lon="-3.4502">
        <ele>99</ele>
        <time>2017-01-13T22:45:00Z</time>
      </trkpt>
      <trkpt lat="47.9382" lon="-3.45026">
        <ele>98</ele>
        <time>2017-01-13T22:47:00Z</time>
      </trkpt>
      <trkpt lat="47.93813" lon="-3.45029">
        <ele>98</ele>
        <time>2017-01-13T22:49:00Z</time>
      </trkpt>
      <trkpt lat="47.93801" lon="-3.45031">
        <ele>96</ele>
        <time>2017-01-13T22:51:00Z</time>
      </trkpt>
      <trkpt lat="47.93788" lon="-3.45031">
        <ele>95</ele>
        <time>2017-01-13T22:53:00Z</time>
      </trkpt>
      <trkpt lat="47.93663" lon="-3.44988">
        <ele>92</ele>
        <time>2017-01-13T22:55:00Z</time>
      </trkpt>
      <trkpt lat="47.93648" lon="-3.44979">
        <ele>92</ele>
        <time>2017-01-13T22:57:00Z</time>
      </trkpt>
      <trkpt lat="47.93616" lon="-3.44951">
        <ele>93</ele>
        <time>2017-01-13T22:59:00Z</time>
      </trkpt>
      <trkpt lat="47.935" lon="-3.44829">
        <ele>97</ele>
        <time>2017-01-13T23:01:00Z</time>
      </trkpt>
      <trkpt lat="47.93479" lon="-3.44808">
        <ele>98</ele>
        <time>2017-01-13T23:03:00Z</time>
      </trkpt>
      <trkpt lat="47.93455" lon="-3.44775">
        <ele>98</ele>
        <time>2017-01-13T23:05:00Z</time>
      </trkpt>
      <trkpt lat="47.93395" lon="-3.44842">
        <ele>94</ele>
        <time>2017-01-13T23:07:00Z</time>
      </trkpt>
      <trkpt lat="47.93354" lon="-3.44883">
        <ele>92</ele>
        <time>2017-01-13T23:09:00Z</time>
      </trkpt>
      <trkpt lat="47.93341" lon="-3.44893">
        <ele>91</ele>
        <time>2017-01-13T23:11:00Z</time>
      </trkpt>
      <trkpt lat="47.93333" lon="-3.44898">
        <ele>91</ele>
        <time>2017-01-13T23:13:00Z</time>
      </trkpt>
      <trkpt lat="47.93332" lon="-3.44893">
        <ele>91</ele>
        <time>2017-01-13T23:15:00Z</time>
      </trkpt>
      <trkpt lat="47.93333" lon="-3.44898">
        <ele>91</ele>
        <time>2017-01-13T23:17:00Z</time>
      </trkpt>
      <trkpt lat="47.93331" lon="-3.449">
        <ele>91</ele>
        <time>2017-01-13T23:19:00Z</time>
      </trkpt>
      <trkpt lat="47.9332" lon="-3.449">
        <ele>91</ele>
        <time>2017-01-13T23:21:00Z</time>
      </trkpt>
      <trkpt lat="47.93311" lon="-3.44896">
        <ele>92</ele>
        <time>2017-01-13T23:23:00Z</time>
      </trkpt>
      <trkpt lat="47.93296" lon="-3.44936">
        <ele>91</ele>
        <time>2017-01-13T23:25:00Z</time>
      </trkpt>
      <trkpt lat="47.93288" lon="-3.44962">
        <ele>91</ele>
        <time>2017-01-13T23:27:00Z</time>
      </trkpt>
      <trkpt lat="47.93281" lon="-3.44977">
        <ele>91</ele>
        <time>2017-01-13T23:29:00Z</time>
      </trkpt>
      <trkpt lat="47.93271" lon="-3.45024">
        <ele>90</ele>
        <time>2017-01-13T23:31:00Z</time>
      </trkpt>
      <trkpt lat="47.93266" lon="-3.45042">
        <ele>90</ele>
        <time>2017-01-13T23:33:00Z</time>
      </trkpt>
      <trkpt lat="47.93262" lon="-3.45067">
        <ele>89</ele>
        <time>2017-01-13T23:35:00Z</time>
      </trkpt>
      <trkpt lat="47.93263" lon="-3.45061">
        <ele>89</ele>
        <time>2017-01-13T23:37:00Z</time>
      </trkpt>
      <trkpt lat="47.93262" lon="-3.45067">
        <ele>89</ele>
        <time>2017-01-13T23:39:00Z</time>
      </trkpt>
      <trkpt lat="47.93262" lon="-3.45099">
        <ele>89</ele>
        <time>2017-01-13T23:41:00Z</time>
      </trkpt>
      <trkpt lat="47.9326" lon="-3.45134">
        <ele>89</ele>
        <time>2017-01-13T23:43:00Z</time>
      </trkpt>
      <trkpt lat="47.93253" lon="-3.45172">
        <ele>88</ele>
        <time>2017-01-13T23:45:00Z</time>
      </trkpt>
      <trkpt lat="47.93257" lon="-3.45152">
        <ele>88</ele>
        <time>2017-01-13T23:47:00Z</time>
      </trkpt>
      <trkpt lat="47.93269" lon="-3.45157">
        <ele>89</ele>
        <time>2017-01-13T23:49:00Z</time>
      </trkpt>
      <trkpt lat="47.93257" lon="-3.45152">
        <ele>88</ele>
        <time>2017-01-13T23:51:00Z</time>
      </trkpt>
      <trkpt lat="47.93253" lon="-3.45172">
        <ele>88</ele>
        <time>2017-01-13T23:53:00Z</time>
      </trkpt>
      <trkpt lat="47.932" lon="-3.45209">
        <ele>83</ele>
        <time>2017-01-13T23:55:00Z</time>
      </trkpt>
      <trkpt lat="47.93193" lon="-3.45211">
        <ele>82</ele>
        <time>2017-01-13T23:57:00Z</time>
      </trkpt>
      <trkpt lat="47.93178" lon="-3.45217">
        <ele>80</ele>
        <time>2017-01-13T23:59:00Z</time>
      </trkpt>
      <trkpt lat="47.9317" lon="-3.45224">
        <ele>78</ele>
        <time>2017-01-14T00:01:00Z</time>
      </trkpt>
      <trkpt lat="47.93176" lon="-3.45219">
        <ele>79</ele>
        <time>2017-01-14T00:03:00Z</time>
      </trkpt>
      <trkpt lat="47.93178" lon="-3.45225">
        <ele>79</ele>
        <time>2017-01-14T00:05:00Z</time>
      </trkpt>
      <trkpt lat="47.93176" lon="-3.45219">
        <ele>79</ele>
        <time>2017-01-14T00:07:00Z</time>
      </trkpt>
      <trkpt lat="47.9317" lon="-3.45224">
        <ele>78</ele>
        <time>2017-01-14T00:09:00Z</time>
      </trkpt>
      <trkpt lat="47.93163" lon="-3.45232">
        <ele>77</ele>
        <time>2017-01-14T00:11:00Z</time>
      </trkpt>
      <trkpt lat="47.93148" lon="-3.45258">
        <ele>74</ele>
        <time>2017-01-14T00:13:00Z</time>
      </trkpt>
      <trkpt lat="47.93125" lon="-3.45308">
        <ele>70</ele>
        <time>2017-01-14T00:15:00Z</time>
      </trkpt>
      <trkpt lat="47.93116" lon="-3.45344">
        <ele>68</ele>
        <time>2017-01-14T00:17:00Z</time>
      </trkpt>
      <trkpt lat="47.93097" lon="-3.45398">
        <ele>63</ele>
        <time>2017-01-14T00:19:00Z</time>
      </trkpt>
      <trkpt lat="47.93084" lon="-3.45413">
        <ele>60</ele>
        <time>2017-01-14T00:21:00Z</time>
      </trkpt>
      <trkpt lat="47.93062" lon="-3.4543">
        <ele>58</ele>
        <time>2017-01-14T00:23:00Z</time>
      </trkpt>
      <trkpt lat="47.93054" lon="-3.45443">
        <ele>57</ele>
        <time>2017-01-14T00:25:00Z</time>
      </trkpt>
      <trkpt lat="47.93061" lon="-3.45432">
        <ele>58</ele>
        <time>2017-01-14T00:27:00Z</time>
      </trkpt>
      <trkpt lat="47.93054" lon="-3.45443">
        <ele>57</ele>
        <time>2017-01-14T00:29:00Z</time>
      </trkpt>
      <trkpt lat="47.93043" lon="-3.45466">
        <ele>56</ele>
        <time>2017-01-14T00:31:00Z</time>
      </trkpt>
      <trkpt lat="47.93037" lon="-3.45486">
        <ele>55</ele>
        <time>2017-01-14T00:33:00Z</time>
      </trkpt>
      <trkpt lat="47.9303" lon="-3.45514">
        <ele>53</ele>
        <time>2017-01-14T00:35:00Z</time>
      </trkpt>
      <trkpt lat="47.93026" lon="-3.45526">
        <ele>53</ele>
        <time>2017-01-14T00:37:00Z</time>
      </trkpt>
      <trkpt lat="47.9302" lon="-3.45526">
        <ele>53</ele>
        <time>2017-01-14T00:39:00Z</time>
      </trkpt>
      <trkpt lat="47.93007" lon="-3.45529">
        <ele>53</ele>
        <time>2017-01-14T00:41:00Z</time>
      </trkpt>
      <trkpt lat="47.92987" lon="-3.45537">
        <ele>52</ele>
        <time>2017-01-14T00:43:00Z</time>
      </trkpt>
      <trkpt lat="47.92972" lon="-3.45539">
        <ele>51</ele>
        <time>2017-01-14T00:45:00Z</time>
      </trkpt>
      <trkpt lat="47.92944" lon="-3.45546">
        <ele>50</ele>
        <time>2017-01-14T00:47:00Z</time>
      </trkpt>
      <trkpt lat="47.92934" lon="-3.45544">
        <ele>50</ele>
        <time>2017-01-14T00:49:00Z</time>
      </trkpt>
      <trkpt lat="47.92929" lon="-3.45559">
        <ele>49</ele>
        <time>2017-01-14T00:51:00Z</time>
      </trkpt>
      <trkpt lat="47.9291" lon="-3.45593">
        <ele>47</ele>
        <time>2017-01-14T00:53:00Z</time>
      </trkpt>
      <trkpt lat="47.92908" lon="-3.45599">
        <ele>47</ele>
        <time>2017-01-14T00:55:00Z</time>
      </trkpt>
      <trkpt lat="47.92899" lon="-3.45617">
        <ele>46</ele>
        <time>2017-01-14T00:57:00Z</time>
      </trkpt>
      <trkpt lat="47.92897" lon="-3.45644">
        <ele>46</ele>
        <time>2017-01-14T00:59:00Z</time>
      </trkpt>
      <trkpt lat="47.92895" lon="-3.45646">
        <ele>46</ele>
        <time>2017-01-14T01:01:00Z</time>
      </trkpt>
      <trkpt lat="47.92897" lon="-3.45659">
        <ele>46</ele>
        <time>2017-01-14T01:03:00Z</time>
      </trkpt>
      <trkpt lat="47.92902" lon="-3.45675">
        <ele>46</ele>
        <time>2017-01-14T01:05:00Z</time>
      </trkpt>
      <trkpt lat="47.92902" lon="-3.45692">
        <ele>46</ele>
        <time>2017-01-14T01:07:00Z</time>
      </trkpt>
      <trkpt lat="47.92899" lon="-3.45705">
        <ele>46</ele>
        <time>2017-01-14T01:09:00Z</time>
      </trkpt>
      <trkpt lat="47.92895" lon="-3.45722">
        <ele>45</ele>
        <time>2017-01-14T01:11:00Z</time>
      </trkpt>
      <trkpt lat="47.92861" lon="-3.45818">
        <ele>42</ele>
        <time>2017-01-14T01:13:00Z</time>
      </trkpt>
      <trkpt lat="47.92856" lon="-3.45827">
        <ele>42</ele>
        <time>2017-01-14T01:15:00Z</time>
      </trkpt>
      <trkpt lat="47.9285" lon="-3.45838">
        <ele>41</ele>
        <time>2017-01-14T01:17:00Z</time>
      </trkpt>
      <trkpt lat="47.92848" lon="-3.45844">
        <ele>41</ele>
        <time>2017-01-14T01:19:00Z</time>
      </trkpt>
      <trkpt lat="47.92846" lon="-3.45857">
        <ele>41</ele>
        <time>2017-01-14T01:21:00Z</time>
      </trkpt>
      <trkpt lat="47.92846" lon="-3.45893">
        <ele>40</ele>
        <time>2017-01-14T01:23:00Z</time>
      </trkpt>
      <trkpt lat="47.92844" lon="-3.45904">
        <ele>40</ele>
        <time>2017-01-14T01:25:00Z</time>
      </trkpt>
      <trkpt lat="47.92839" lon="-3.45911">
        <ele>40</ele>
        <time>2017-01-14T01:27:00Z</time>
      </trkpt>
      <trkpt lat="47.92852" lon="-3.45932">
        <ele>38</ele>
        <time>2017-01-14T01:29:00Z</time>
      </trkpt>
      <trkpt lat="47.92839" lon="-3.45911">
        <ele>40</ele>
        <time>2017-01-14T01:31:00Z</time>
      </trkpt>
      <trkpt lat="47.92835" lon="-3.45913">
        <ele>40</ele>
        <time>2017-01-14T01:33:00Z</time>
      </trkpt>
      <trkpt lat="47.92829" lon="-3.45915">
        <ele>40</ele>
        <time>2017-01-14T01:35:00Z</time>
      </trkpt>
      <trkpt lat="47.92807" lon="-3.45913">
        <ele>39</ele>
        <time>2017-01-14T01:37:00Z</time>
      </trkpt>
      <trkpt lat="47.92786" lon="-3.45913">
        <ele>38</ele>
        <time>2017-01-14T01:39:00Z</time>
      </trkpt>
      <trkpt lat="47.92762" lon="-3.45911">
        <ele>37</ele>
        <time>2017-01-14T01:41:00Z</time>
      </trkpt>
      <trkpt lat="47.92726" lon="-3.45911">
        <ele>35</ele>
        <time>2017-01-14T01:43:00Z</time>
      </trkpt>
      <trkpt lat="47.92717" lon="-3.45917">
        <ele>34</ele>
        <time>2017-01-14T01:45:00Z</time>
      </trkpt>
      <trkpt lat="47.92706" lon="-3.45928">
        <ele>33</ele>
        <time>2017-01-14T01:47:00Z</time>
      </trkpt>
      <trkpt lat="47.92702" lon="-3.4593">
        <ele>33</ele>
        <time>2017-01-14T01:49:00Z</time>
      </trkpt>
      <trkpt lat="47.92693" lon="-3.45926">
        <ele>33</ele>
        <time>2017-01-14T01:51:00Z</time>
      </trkpt>
      <trkpt lat="47.92681" lon="-3.45917">
        <ele>33</ele>
        <time>2017-01-14T01:53:00Z</time>
      </trkpt>
      <trkpt lat="47.92668" lon="-3.45913">
        <ele>32</ele>
        <time>2017-01-14T01:55:00Z</time>
      </trkpt>
      <trkpt lat="47.92627" lon="-3.45902">
        <ele>31</ele>
        <time>2017-01-14T01:57:00Z</time>
      </trkpt>
      <trkpt lat="47.92595" lon="-3.45898">
        <ele>30</ele>
        <time>2017-01-14T01:59:00Z</time>
      </trkpt>
      <trkpt lat="47.92543" lon="-3.45883">
        <ele>29</ele>
        <time>2017-01-14T02:01:00Z</time>
      </trkpt>
      <trkpt lat="47.92513" lon="-3.4587">
        <ele>29</ele>
        <time>2017-01-14T02:03:00Z</time>
      </trkpt>
      <trkpt lat="47.92475" lon="-3.4585">
        <ele>29</ele>
        <time>2017-01-14T02:05:00Z</time>
      </trkpt>
      <trkpt lat="47.92455" lon="-3.45842">
        <ele>29</ele>
        <time>2017-01-14T02:07:00Z</time>
      </trkpt>
      <trkpt lat="47.92395" lon="-3.45829">
        <ele>30</ele>
        <time>2017-01-14T02:09:00Z</time>
      </trkpt>
      <trkpt lat="47.92391" lon="-3.45829">
        <ele>30</ele>
        <time>2017-01-14T02:11:00Z</time>
      </trkpt>
      <trkpt lat="47.92369" lon="-3.45825">
        <ele>31</ele>
        <time>2017-01-14T02:13:00Z</time>
      </trkpt>
      <trkpt lat="47.92344" lon="-3.45823">
        <ele>32</ele>
        <time>2017-01-14T02:15:00Z</time>
      </trkpt>
      <trkpt lat="47.92324" lon="-3.45823">
        <ele>37</ele>
        <time>2017-01-14T02:17:00Z</time>
      </trkpt>
      <trkpt lat="47.92307" lon="-3.45827">
        <ele>44</ele>
        <time>2017-01-14T02:19:00Z</time>
      </trkpt>
      <trkpt lat="47.92307" lon="-3.45868">
        <ele>43</ele>
        <time>2017-01-14T02:21:00Z</time>
      </trkpt>
      <trkpt lat="47.92307" lon="-3.45875">
        <ele>42</ele>
        <time>2017-01-14T02:23:00Z</time>
      </trkpt>
      <trkpt lat="47.92284" lon="-3.45872">
        <ele>52</ele>
        <time>2017-01-14T02:25:00Z</time>
      </trkpt>
      <trkpt lat="47.92307" lon="-3.45875">
        <ele>42</ele>
        <time>2017-01-14T02:27:00Z</time>
      </trkpt>
      <trkpt lat="47.92307" lon="-3.45868">
        <ele>43</ele>
        <time>2017-01-14T02:29:00Z</time>
      </trkpt>
      <trkpt lat="47.92307" lon="-3.45827">
        <ele>44</ele>
        <time>2017-01-14T02:31:00Z</time>
      </trkpt>
      <trkpt lat="47.92303" lon="-3.45814">
        <ele>45</ele>
        <time>2017-01-14T02:33:00Z</time>
      </trkpt>
      <trkpt lat="47.92301" lon="-3.45752">
        <ele>43</ele>
        <time>2017-01-14T02:35:00Z</time>
      </trkpt>
      <trkpt lat="47.92296" lon="-3.45696">
        <ele>41</ele>
        <time>2017-01-14T02:37:00Z</time>
      </trkpt>
      <trkpt lat="47.92294" lon="-3.45655">
        <ele>38</ele>
        <time>2017-01-14T02:39:00Z</time>
      </trkpt>
      <trkpt lat="47.92292" lon="-3.45641">
        <ele>38</ele>
        <time>2017-01-14T02:41:00Z</time>
      </trkpt>
      <trkpt lat="47.92288" lon="-3.45614">
        <ele>36</ele>
        <time>2017-01-14T02:43:00Z</time>
      </trkpt>
      <trkpt lat="47.92243" lon="-3.4555">
        <ele>36</ele>
        <time>2017-01-14T02:45:00Z</time>
      </trkpt>
      <trkpt lat="47.92185" lon="-3.4549">
        <ele>35</ele>
        <time>2017-01-14T02:47:00Z</time>
      </trkpt>
      <trkpt lat="47.92202" lon="-3.45508">
        <ele>36</ele>
        <time>2017-01-14T02:49:00Z</time>
      </trkpt>
      <trkpt lat="47.92176" lon="-3.45481">
        <ele>35</ele>
        <time>2017-01-14T02:51:00Z</time>
      </trkpt>
      <trkpt lat="47.92155" lon="-3.45477">
        <ele>35</ele>
        <time>2017-01-14T02:53:00Z</time>
      </trkpt>
      <trkpt lat="47.92138" lon="-3.45477">
        <ele>35</ele>
        <time>2017-01-14T02:55:00Z</time>
      </trkpt>
      <trkpt lat="47.92145" lon="-3.45477">
        <ele>35</ele>
        <time>2017-01-14T02:57:00Z</time>
      </trkpt>
      <trkpt lat="47.92138" lon="-3.45477">
        <ele>35</ele>
        <time>2017-01-14T02:59:00Z</time>
      </trkpt>
      <trkpt lat="47.92123" lon="-3.45481">
        <ele>36</ele>
        <time>2017-01-14T03:01:00Z</time>
      </trkpt>
      <trkpt lat="47.9211" lon="-3.45488">
        <ele>37</ele>
        <time>2017-01-14T03:03:00Z</time>
      </trkpt>
      <trkpt lat="47.9209" lon="-3.45501">
        <ele>38</ele>
        <time>2017-01-14T03:05:00Z</time>
      </trkpt>
      <trkpt lat="47.92071" lon="-3.45518">
        <ele>40</ele>
        <time>2017-01-14T03:07:00Z</time>
      </trkpt>
      <trkpt lat="47.92073" lon="-3.45531">
        <ele>42</ele>
        <time>2017-01-14T03:09:00Z</time>
      </trkpt>
      <trkpt lat="47.92075" lon="-3.45537">
        <ele>43</ele>
        <time>2017-01-14T03:11:00Z</time>
      </trkpt>
      <trkpt lat="47.92069" lon="-3.45548">
        <ele>45</ele>
        <time>2017-01-14T03:13:00Z</time>
      </trkpt>
      <trkpt lat="47.9206" lon="-3.45556">
        <ele>45</ele>
        <time>2017-01-14T03:15:00Z</time>
      </trkpt>
      <trkpt lat="47.9206" lon="-3.45553">
        <ele>45</ele>
        <time>2017-01-14T03:17:00Z</time>
      </trkpt>
      <trkpt lat="47.9206" lon="-3.45556">
        <ele>45</ele>
        <time>2017-01-14T03:19:00Z</time>
      </trkpt>
      <trkpt lat="47.92054" lon="-3.45584">
        <ele>50</ele>
        <time>2017-01-14T03:21:00Z</time>
      </trkpt>
      <trkpt lat="47.92052" lon="-3.45602">
        <ele>52</ele>
        <time>2017-01-14T03:23:00Z</time>
      </trkpt>
      <trkpt lat="47.92052" lon="-3.45619">
        <ele>54</ele>
        <time>2017-01-14T03:25:00Z</time>
      </trkpt>
      <trkpt lat="47.92054" lon="-3.45629">
        <ele>56</ele>
        <time>2017-01-14T03:27:00Z</time>
      </trkpt>
      <trkpt lat="47.92058" lon="-3.45657">
        <ele>60</ele>
        <time>2017-01-14T03:29:00Z</time>
      </trkpt>
      <trkpt lat="47.92058" lon="-3.4567">
        <ele>62</ele>
        <time>2017-01-14T03:31:00Z</time>
      </trkpt>
      <trkpt lat="47.92052" lon="-3.4569">
        <ele>64</ele>
        <time>2017-01-14T03:33:00Z</time>
      </trkpt>
      <trkpt lat="47.92026" lon="-3.45722">
        <ele>65</ele>
        <time>2017-01-14T03:35:00Z</time>
      </trkpt>
      <trkpt lat="47.92013" lon="-3.45741">
        <ele>65</ele>
        <time>2017-01-14T03:37:00Z</time>
      </trkpt>
      <trkpt lat="47.91987" lon="-3.45782">
        <ele>64</ele>
        <time>2017-01-14T03:39:00Z</time>
      </trkpt>
      <trkpt lat="47.91981" lon="-3.45799">
        <ele>64</ele>
        <time>2017-01-14T03:41:00Z</time>
      </trkpt>
      <trkpt lat="47.91979" lon="-3.45814">
        <ele>66</ele>
        <time>2017-01-14T03:43:00Z</time>
      </trkpt>
      <trkpt lat="47.91964" lon="-3.45859">
        <ele>68</ele>
        <time>2017-01-14T03:45:00Z</time>
      </trkpt>
      <trkpt lat="47.91957" lon="-3.45885">
        <ele>71</ele>
        <time>2017-01-14T03:47:00Z</time>
      </trkpt>
      <trkpt lat="47.91934" lon="-3.45958">
        <ele>77</ele>
        <time>2017-01-14T03:49:00Z</time>
      </trkpt>
      <trkpt lat="47.91917" lon="-3.46001">
        <ele>80</ele>
        <time>2017-01-14T03:51:00Z</time>
      </trkpt>
      <trkpt lat="47.9191" lon="-3.46014">
        <ele>80</ele>
        <time>2017-01-14T03:53:00Z</time>
      </trkpt>
      <trkpt lat="47.91895" lon="-3.46033">
        <ele>77</ele>
        <time>2017-01-14T03:55:00Z</time>
      </trkpt>
      <trkpt lat="47.91887" lon="-3.46052">
        <ele>77</ele>
        <time>2017-01-14T03:57:00Z</time>
      </trkpt>
      <trkpt lat="47.91876" lon="-3.46093">
        <ele>79</ele>
        <time>2017-01-14T03:59:00Z</time>
      </trkpt>
      <trkpt lat="47.91874" lon="-3.46129">
        <ele>79</ele>
        <time>2017-01-14T04:01:00Z</time>
      </trkpt>
      <trkpt lat="47.91865" lon="-3.46138">
        <ele>77</ele>
        <time>2017-01-14T04:03:00Z</time>
      </trkpt>
      <trkpt lat="47.91863" lon="-3.46162">
        <ele>78</ele>
        <time>2017-01-14T04:05:00Z</time>
      </trkpt>
      <trkpt lat="47.91861" lon="-3.4625">
        <ele>84</ele>
        <time>2017-01-14T04:07:00Z</time>
      </trkpt>
      <trkpt lat="47.91863" lon="-3.46286">
        <ele>85</ele>
        <time>2017-01-14T04:09:00Z</time>
      </trkpt>
      <trkpt lat="47.91861" lon="-3.46318">
        <ele>86</ele>
        <time>2017-01-14T04:11:00Z</time>
      </trkpt>
      <trkpt lat="47.9185" lon="-3.4628">
        <ele>83</ele>
        <time>2017-01-14T04:13:00Z</time>
      </trkpt>
      <trkpt lat="47.91848" lon="-3.46269">
        <ele>82</ele>
        <time>2017-01-14T04:15:00Z</time>
      </trkpt>
      <trkpt lat="47.91846" lon="-3.46265">
        <ele>82</ele>
        <time>2017-01-14T04:17:00Z</time>
      </trkpt>
      <trkpt lat="47.91842" lon="-3.46265">
        <ele>81</ele>
        <time>2017-01-14T04:19:00Z</time>
      </trkpt>
      <trkpt lat="47.91835" lon="-3.46269">
        <ele>80</ele>
        <time>2017-01-14T04:21:00Z</time>
      </trkpt>
      <trkpt lat="47.91831" lon="-3.46275">
        <ele>79</ele>
        <time>2017-01-14T04:23:00Z</time>
      </trkpt>
      <trkpt lat="47.91824" lon="-3.46286">
        <ele>78</ele>
        <time>2017-01-14T04:25:00Z</time>
      </trkpt>
      <trkpt lat="47.91822" lon="-3.4629">
        <ele>77</ele>
        <time>2017-01-14T04:27:00Z</time>
      </trkpt>
      <trkpt lat="47.91816" lon="-3.46292">
        <ele>76</ele>
        <time>2017-01-14T04:29:00Z</time>
      </trkpt>
      <trkpt lat="47.91822" lon="-3.46275">
        <ele>77</ele>
        <time>2017-01-14T04:31:00Z</time>
      </trkpt>
      <trkpt lat="47.91831" lon="-3.46243">
        <ele>78</ele>
        <time>2017-01-14T04:33:00Z</time>
      </trkpt>
      <trkpt lat="47.91835" lon="-3.46213">
        <ele>76</ele>
        <time>2017-01-14T04:35:00Z</time>
      </trkpt>
      <trkpt lat="47.91833" lon="-3.46198">
        <ele>75</ele>
        <time>2017-01-14T04:37:00Z</time>
      </trkpt>
      <trkpt lat="47.91824" lon="-3.46157">
        <ele>68</ele>
        <time>2017-01-14T04:39:00Z</time>
      </trkpt>
      <trkpt lat="47.91822" lon="-3.46136">
        <ele>67</ele>
        <time>2017-01-14T04:41:00Z</time>
      </trkpt>
      <trkpt lat="47.91822" lon="-3.4611">
        <ele>65</ele>
        <time>2017-01-14T04:43:00Z</time>
      </trkpt>
      <trkpt lat="47.91818" lon="-3.46112">
        <ele>64</ele>
        <time>2017-01-14T04:45:00Z</time>
      </trkpt>
      <trkpt lat="47.91816" lon="-3.46117">
        <ele>64</ele>
        <time>2017-01-14T04:47:00Z</time>
      </trkpt>
      <trkpt lat="47.91807" lon="-3.46192">
        <ele>66</ele>
        <time>2017-01-14T04:49:00Z</time>
      </trkpt>
      <trkpt lat="47.91803" lon="-3.46202">
        <ele>66</ele>
        <time>2017-01-14T04:51:00Z</time>
      </trkpt>
      <trkpt lat="47.91801" lon="-3.46211">
        <ele>66</ele>
        <time>2017-01-14T04:53:00Z</time>
      </trkpt>
      <trkpt lat="47.91796" lon="-3.46213">
        <ele>65</ele>
        <time>2017-01-14T04:55:00Z</time>
      </trkpt>
      <trkpt lat="47.91792" lon="-3.46222">
        <ele>64</ele>
        <time>2017-01-14T04:57:00Z</time>
      </trkpt>
      <trkpt lat="47.91788" lon="-3.46228">
        <ele>64</ele>
        <time>2017-01-14T04:59:00Z</time>
      </trkpt>
      <trkpt lat="47.91779" lon="-3.46237">
        <ele>62</ele>
        <time>2017-01-14T05:01:00Z</time>
      </trkpt>
      <trkpt lat="47.91769" lon="-3.46239">
        <ele>60</ele>
        <time>2017-01-14T05:03:00Z</time>
      </trkpt>
      <trkpt lat="47.91764" lon="-3.46239">
        <ele>58</ele>
        <time>2017-01-14T05:05:00Z</time>
      </trkpt>
      <trkpt lat="47.91749" lon="-3.46243">
        <ele>55</ele>
        <time>2017-01-14T05:07:00Z</time>
      </trkpt>
      <trkpt lat="47.91739" lon="-3.46239">
        <ele>53</ele>
        <time>2017-01-14T05:09:00Z</time>
      </trkpt>
      <trkpt lat="47.91734" lon="-3.46239">
        <ele>52</ele>
        <time>2017-01-14T05:11:00Z</time>
      </trkpt>
      <trkpt lat="47.91717" lon="-3.46286">
        <ele>53</ele>
        <time>2017-01-14T05:13:00Z</time>
      </trkpt>
      <trkpt lat="47.91715" lon="-3.46299">
        <ele>54</ele>
        <time>2017-01-14T05:15:00Z</time>
      </trkpt>
      <trkpt lat="47.91708" lon="-3.46305">
        <ele>54</ele>
        <time>2017-01-14T05:17:00Z</time>
      </trkpt>
      <trkpt lat="47.91706" lon="-3.46316">
        <ele>55</ele>
        <time>2017-01-14T05:19:00Z</time>
      </trkpt>
      <trkpt lat="47.91704" lon="-3.46338">
        <ele>57</ele>
        <time>2017-01-14T05:21:00Z</time>
      </trkpt>
      <trkpt lat="47.91702" lon="-3.46348">
        <ele>58</ele>
        <time>2017-01-14T05:23:00Z</time>
      </trkpt>
      <trkpt lat="47.91702" lon="-3.4635">
        <ele>58</ele>
        <time>2017-01-14T05:25:00Z</time>
      </trkpt>
      <trkpt lat="47.91698" lon="-3.46361">
        <ele>59</ele>
        <time>2017-01-14T05:27:00Z</time>
      </trkpt>
      <trkpt lat="47.91691" lon="-3.46368">
        <ele>60</ele>
        <time>2017-01-14T05:29:00Z</time>
      </trkpt>
      <trkpt lat="47.91681" lon="-3.46374">
        <ele>60</ele>
        <time>2017-01-14T05:31:00Z</time>
      </trkpt>
      <trkpt lat="47.91663" lon="-3.46387">
        <ele>62</ele>
        <time>2017-01-14T05:33:00Z</time>
      </trkpt>
      <trkpt lat="47.91653" lon="-3.46395">
        <ele>63</ele>
        <time>2017-01-14T05:35:00Z</time>
      </trkpt>
      <trkpt lat="47.91646" lon="-3.46402">
        <ele>64</ele>
        <time>2017-01-14T05:37:00Z</time>
      </trkpt>
      <trkpt lat="47.9164" lon="-3.46415">
        <ele>66</ele>
        <time>2017-01-14T05:39:00Z</time>
      </trkpt>
      <trkpt lat="47.91632" lon="-3.46409">
        <ele>66</ele>
        <time>2017-01-14T05:41:00Z</time>
      </trkpt>
      <trkpt lat="47.91639" lon="-3.46416">
        <ele>66</ele>
        <time>2017-01-14T05:43:00Z</time>
      </trkpt>
      <trkpt lat="47.91627" lon="-3.46443">
        <ele>68</ele>
        <time>2017-01-14T05:45:00Z</time>
      </trkpt>
      <trkpt lat="47.91612" lon="-3.46471">
        <ele>70</ele>
        <time>2017-01-14T05:47:00Z</time>
      </trkpt>
      <trkpt lat="47.91595" lon="-3.46496">
        <ele>70</ele>
        <time>2017-01-14T05:49:00Z</time>
      </trkpt>
      <trkpt lat="47.91613" lon="-3.46522">
        <ele>73</ele>
        <time>2017-01-14T05:51:00Z</time>
      </trkpt>
      <trkpt lat="47.91594" lon="-3.46498">
        <ele>70</ele>
        <time>2017-01-14T05:53:00Z</time>
      </trkpt>
      <trkpt lat="47.91582" lon="-3.4652">
        <ele>70</ele>
        <time>2017-01-14T05:55:00Z</time>
      </trkpt>
      <trkpt lat="47.91569" lon="-3.46539">
        <ele>73</ele>
        <time>2017-01-14T05:57:00Z</time>
      </trkpt>
      <trkpt lat="47.91569" lon="-3.4653">
        <ele>72</ele>
        <time>2017-01-14T05:59:00Z</time>
      </trkpt>
      <trkpt lat="47.91569" lon="-3.46539">
        <ele>73</ele>
        <time>2017-01-14T06:01:00Z</time>
      </trkpt>
      <trkpt lat="47.91569" lon="-3.46462">
        <ele>70</ele>
        <time>2017-01-14T06:03:00Z</time>
      </trkpt>
      <trkpt lat="47.9156" lon="-3.46456">
        <ele>71</ele>
        <time>2017-01-14T06:05:00Z</time>
      </trkpt>
      <trkpt lat="47.91569" lon="-3.46462">
        <ele>70</ele>
        <time>2017-01-14T06:07:00Z</time>
      </trkpt>
      <trkpt lat="47.91569" lon="-3.46486">
        <ele>70</ele>
        <time>2017-01-14T06:09:00Z</time>
      </trkpt>
      <trkpt lat="47.91569" lon="-3.46462">
        <ele>70</ele>
        <time>2017-01-14T06:11:00Z</time>
      </trkpt>
      <trkpt lat="47.91575" lon="-3.46441">
        <ele>69</ele>
        <time>2017-01-14T06:13:00Z</time>
      </trkpt>
      <trkpt lat="47.9158" lon="-3.46419">
        <ele>68</ele>
        <time>2017-01-14T06:15:00Z</time>
      </trkpt>
      <trkpt lat="47.91582" lon="-3.46378">
        <ele>64</ele>
        <time>2017-01-14T06:17:00Z</time>
      </trkpt>
      <trkpt lat="47.91582" lon="-3.4637">
        <ele>64</ele>
        <time>2017-01-14T06:19:00Z</time>
      </trkpt>
      <trkpt lat="47.91582" lon="-3.46366">
        <ele>64</ele>
        <time>2017-01-14T06:21:00Z</time>
      </trkpt>
      <trkpt lat="47.91562" lon="-3.46361">
        <ele>67</ele>
        <time>2017-01-14T06:23:00Z</time>
      </trkpt>
      <trkpt lat="47.91582" lon="-3.46366">
        <ele>64</ele>
        <time>2017-01-14T06:25:00Z</time>
      </trkpt>
      <trkpt lat="47.91582" lon="-3.4637">
        <ele>64</ele>
        <time>2017-01-14T06:27:00Z</time>
      </trkpt>
      <trkpt lat="47.9159" lon="-3.4629">
        <ele>55</ele>
        <time>2017-01-14T06:29:00Z</time>
      </trkpt>
      <trkpt lat="47.9159" lon="-3.46273">
        <ele>52</ele>
        <time>2017-01-14T06:31:00Z</time>
      </trkpt>
      <trkpt lat="47.91586" lon="-3.46269">
        <ele>52</ele>
        <time>2017-01-14T06:33:00Z</time>
      </trkpt>
      <trkpt lat="47.9159" lon="-3.46269">
        <ele>52</ele>
        <time>2017-01-14T06:35:00Z</time>
      </trkpt>
      <trkpt lat="47.9159" lon="-3.46262">
        <ele>51</ele>
        <time>2017-01-14T06:37:00Z</time>
      </trkpt>
      <trkpt lat="47.91584" lon="-3.46247">
        <ele>49</ele>
        <time>2017-01-14T06:39:00Z</time>
      </trkpt>
      <trkpt lat="47.91578" lon="-3.46239">
        <ele>48</ele>
        <time>2017-01-14T06:41:00Z</time>
      </trkpt>
      <trkpt lat="47.91571" lon="-3.46228">
        <ele>47</ele>
        <time>2017-01-14T06:43:00Z</time>
      </trkpt>
      <trkpt lat="47.91537" lon="-3.46198">
        <ele>47</ele>
        <time>2017-01-14T06:45:00Z</time>
      </trkpt>
      <trkpt lat="47.91524" lon="-3.46181">
        <ele>45</ele>
        <time>2017-01-14T06:47:00Z</time>
      </trkpt>
      <trkpt lat="47.91502" lon="-3.46164">
        <ele>45</ele>
        <time>2017-01-14T06:49:00Z</time>
      </trkpt>
      <trkpt lat="47.91481" lon="-3.46151">
        <ele>45</ele>
        <time>2017-01-14T06:51:00Z</time>
      </trkpt>
      <trkpt lat="47.91475" lon="-3.46147">
        <ele>45</ele>
        <time>2017-01-14T06:53:00Z</time>
      </trkpt>
      <trkpt lat="47.91477" lon="-3.46141">
        <ele>43</ele>
        <time>2017-01-14T06:55:00Z</time>
      </trkpt>
      <trkpt lat="47.91475" lon="-3.46147">
        <ele>45</ele>
        <time>2017-01-14T06:57:00Z</time>
      </trkpt>
      <trkpt lat="47.91481" lon="-3.46151">
        <ele>45</ele>
        <time>2017-01-14T06:59:00Z</time>
      </trkpt>
      <trkpt lat="47.91462" lon="-3.46138">
        <ele>44</ele>
        <time>2017-01-14T07:01:00Z</time>
      </trkpt>
      <trkpt lat="47.91453" lon="-3.46132">
        <ele>43</ele>
        <time>2017-01-14T07:03:00Z</time>
      </trkpt>
      <trkpt lat="47.91442" lon="-3.46134">
        <ele>45</ele>
        <time>2017-01-14T07:05:00Z</time>
      </trkpt>
      <trkpt lat="47.91421" lon="-3.46136">
        <ele>48</ele>
        <time>2017-01-14T07:07:00Z</time>
      </trkpt>
      <trkpt lat="47.91404" lon="-3.46136">
        <ele>49</ele>
        <time>2017-01-14T07:09:00Z</time>
      </trkpt>
      <trkpt lat="47.91384" lon="-3.46134">
        <ele>50</ele>
        <time>2017-01-14T07:11:00Z</time>
      </trkpt>
      <trkpt lat="47.91365" lon="-3.46127">
        <ele>50</ele>
        <time>2017-01-14T07:13:00Z</time>
      </trkpt>
      <trkpt lat="47.91348" lon="-3.46125">
        <ele>50</ele>
        <time>2017-01-14T07:15:00Z</time>
      </trkpt>
      <trkpt lat="47.91333" lon="-3.46119">
        <ele>49</ele>
        <time>2017-01-14T07:17:00Z</time>
      </trkpt>
      <trkpt lat="47.91314" lon="-3.46112">
        <ele>48</ele>
        <time>2017-01-14T07:19:00Z</time>
      </trkpt>
      <trkpt lat="47.91291" lon="-3.46102">
        <ele>46</ele>
        <time>2017-01-14T07:21:00Z</time>
      </trkpt>
      <trkpt lat="47.91283" lon="-3.46143">
        <ele>59</ele>
        <time>2017-01-14T07:23:00Z</time>
      </trkpt>
      <trkpt lat="47.91291" lon="-3.46102">
        <ele>46</ele>
        <time>2017-01-14T07:25:00Z</time>
      </trkpt>
      <trkpt lat="47.91299" lon="-3.46106">
        <ele>47</ele>
        <time>2017-01-14T07:27:00Z</time>
      </trkpt>
      <trkpt lat="47.91284" lon="-3.46099">
        <ele>45</ele>
        <time>2017-01-14T07:29:00Z</time>
      </trkpt>
      <trkpt lat="47.91262" lon="-3.46099">
        <ele>47</ele>
        <time>2017-01-14T07:31:00Z</time>
      </trkpt>
      <trkpt lat="47.91243" lon="-3.46097">
        <ele>47</ele>
        <time>2017-01-14T07:33:00Z</time>
      </trkpt>
      <trkpt lat="47.91217" lon="-3.46095">
        <ele>48</ele>
        <time>2017-01-14T07:35:00Z</time>
      </trkpt>
      <trkpt lat="47.91202" lon="-3.46091">
        <ele>48</ele>
        <time>2017-01-14T07:37:00Z</time>
      </trkpt>
      <trkpt lat="47.91183" lon="-3.46084">
        <ele>47</ele>
        <time>2017-01-14T07:39:00Z</time>
      </trkpt>
      <trkpt lat="47.9117" lon="-3.46076">
        <ele>46</ele>
        <time>2017-01-14T07:41:00Z</time>
      </trkpt>
      <trkpt lat="47.91163" lon="-3.46074">
        <ele>46</ele>
        <time>2017-01-14T07:43:00Z</time>
      </trkpt>
      <trkpt lat="47.91148" lon="-3.46071">
        <ele>45</ele>
        <time>2017-01-14T07:45:00Z</time>
      </trkpt>
      <trkpt lat="47.91144" lon="-3.46071">
        <ele>45</ele>
        <time>2017-01-14T07:47:00Z</time>
      </trkpt>
      <trkpt lat="47.91144" lon="-3.46087">
        <ele>48</ele>
        <time>2017-01-14T07:49:00Z</time>
      </trkpt>
      <trkpt lat="47.91144" lon="-3.46071">
        <ele>45</ele>
        <time>2017-01-14T07:51:00Z</time>
      </trkpt>
      <trkpt lat="47.91148" lon="-3.46071">
        <ele>45</ele>
        <time>2017-01-14T07:53:00Z</time>
      </trkpt>
      <trkpt lat="47.91118" lon="-3.46071">
        <ele>44</ele>
        <time>2017-01-14T07:55:00Z</time>
      </trkpt>
      <trkpt lat="47.91078" lon="-3.46065">
        <ele>41</ele>
        <time>2017-01-14T07:57:00Z</time>
      </trkpt>
      <trkpt lat="47.91065" lon="-3.46065">
        <ele>40</ele>
        <time>2017-01-14T07:59:00Z</time>
      </trkpt>
      <trkpt lat="47.9105" lon="-3.46069">
        <ele>41</ele>
        <time>2017-01-14T08:01:00Z</time>
      </trkpt>
      <trkpt lat="47.91042" lon="-3.46071">
        <ele>41</ele>
        <time>2017-01-14T08:03:00Z</time>
      </trkpt>
      <trkpt lat="47.91043" lon="-3.46079">
        <ele>42</ele>
        <time>2017-01-14T08:05:00Z</time>
      </trkpt>
      <trkpt lat="47.91042" lon="-3.46071">
        <ele>41</ele>
        <time>2017-01-14T08:07:00Z</time>
      </trkpt>
      <trkpt lat="47.9103" lon="-3.46074">
        <ele>41</ele>
        <time>2017-01-14T08:09:00Z</time>
      </trkpt>
      <trkpt lat="47.91018" lon="-3.46076">
        <ele>41</ele>
        <time>2017-01-14T08:11:00Z</time>
      </trkpt>
      <trkpt lat="47.91013" lon="-3.46069">
        <ele>39</ele>
        <time>2017-01-14T08:13:00Z</time>
      </trkpt>
      <trkpt lat="47.91005" lon="-3.46059">
        <ele>37</ele>
        <time>2017-01-14T08:15:00Z</time>
      </trkpt>
      <trkpt lat="47.90994" lon="-3.4605">
        <ele>36</ele>
        <time>2017-01-14T08:17:00Z</time>
      </trkpt>
      <trkpt lat="47.9099" lon="-3.4605">
        <ele>36</ele>
        <time>2017-01-14T08:19:00Z</time>
      </trkpt>
      <trkpt lat="47.90985" lon="-3.46084">
        <ele>42</ele>
        <time>2017-01-14T08:21:00Z</time>
      </trkpt>
      <trkpt lat="47.90988" lon="-3.4605">
        <ele>36</ele>
        <time>2017-01-14T08:23:00Z</time>
      </trkpt>
      <trkpt lat="47.90951" lon="-3.46041">
        <ele>35</ele>
        <time>2017-01-14T08:25:00Z</time>
      </trkpt>
      <trkpt lat="47.90906" lon="-3.46041">
        <ele>36</ele>
        <time>2017-01-14T08:27:00Z</time>
      </trkpt>
      <trkpt lat="47.90906" lon="-3.46064">
        <ele>42</ele>
        <time>2017-01-14T08:29:00Z</time>
      </trkpt>
      <trkpt lat="47.90906" lon="-3.46041">
        <ele>36</ele>
        <time>2017-01-14T08:31:00Z</time>
      </trkpt>
      <trkpt lat="47.90869" lon="-3.46041">
        <ele>35</ele>
        <time>2017-01-14T08:33:00Z</time>
      </trkpt>
      <trkpt lat="47.90846" lon="-3.46044">
        <ele>36</ele>
        <time>2017-01-14T08:35:00Z</time>
      </trkpt>
      <trkpt lat="47.90835" lon="-3.46046">
        <ele>36</ele>
        <time>2017-01-14T08:37:00Z</time>
      </trkpt>
      <trkpt lat="47.90822" lon="-3.46052">
        <ele>37</ele>
        <time>2017-01-14T08:39:00Z</time>
      </trkpt>
      <trkpt lat="47.9079" lon="-3.46059">
        <ele>37</ele>
        <time>2017-01-14T08:41:00Z</time>
      </trkpt>
      <trkpt lat="47.90762" lon="-3.46069">
        <ele>37</ele>
        <time>2017-01-14T08:43:00Z</time>
      </trkpt>
      <trkpt lat="47.90743" lon="-3.46084">
        <ele>38</ele>
        <time>2017-01-14T08:45:00Z</time>
      </trkpt>
      <trkpt lat="47.90731" lon="-3.46096">
        <ele>39</ele>
        <time>2017-01-14T08:47:00Z</time>
      </trkpt>
      <trkpt lat="47.9074" lon="-3.46117">
        <ele>44</ele>
        <time>2017-01-14T08:49:00Z</time>
      </trkpt>
      <trkpt lat="47.90731" lon="-3.46096">
        <ele>39</ele>
        <time>2017-01-14T08:51:00Z</time>
      </trkpt>
      <trkpt lat="47.90702" lon="-3.46123">
        <ele>39</ele>
        <time>2017-01-14T08:53:00Z</time>
      </trkpt>
      <trkpt lat="47.90691" lon="-3.4614">
        <ele>40</ele>
        <time>2017-01-14T08:55:00Z</time>
      </trkpt>
      <trkpt lat="47.90679" lon="-3.46162">
        <ele>41</ele>
        <time>2017-01-14T08:57:00Z</time>
      </trkpt>
      <trkpt lat="47.90684" lon="-3.46152">
        <ele>40</ele>
        <time>2017-01-14T08:59:00Z</time>
      </trkpt>
      <trkpt lat="47.90679" lon="-3.46162">
        <ele>41</ele>
        <time>2017-01-14T09:01:00Z</time>
      </trkpt>
      <trkpt lat="47.90672" lon="-3.4617">
        <ele>40</ele>
        <time>2017-01-14T09:03:00Z</time>
      </trkpt>
      <trkpt lat="47.9064" lon="-3.46194">
        <ele>40</ele>
        <time>2017-01-14T09:05:00Z</time>
      </trkpt>
      <trkpt lat="47.90621" lon="-3.46209">
        <ele>40</ele>
        <time>2017-01-14T09:07:00Z</time>
      </trkpt>
      <trkpt lat="47.90614" lon="-3.46215">
        <ele>40</ele>
        <time>2017-01-14T09:09:00Z</time>
      </trkpt>
      <trkpt lat="47.90608" lon="-3.46226">
        <ele>40</ele>
        <time>2017-01-14T09:11:00Z</time>
      </trkpt>
      <trkpt lat="47.90607" lon="-3.46221">
        <ele>40</ele>
        <time>2017-01-14T09:13:00Z</time>
      </trkpt>
      <trkpt lat="47.90609" lon="-3.46224">
        <ele>40</ele>
        <time>2017-01-14T09:15:00Z</time>
      </trkpt>
      <trkpt lat="47.90595" lon="-3.46252">
        <ele>40</ele>
        <time>2017-01-14T09:17:00Z</time>
      </trkpt>
      <trkpt lat="47.90595" lon="-3.46262">
        <ele>40</ele>
        <time>2017-01-14T09:19:00Z</time>
      </trkpt>
      <trkpt lat="47.90597" lon="-3.46271">
        <ele>40</ele>
        <time>2017-01-14T09:21:00Z</time>
      </trkpt>
      <trkpt lat="47.90601" lon="-3.46275">
        <ele>41</ele>
        <time>2017-01-14T09:23:00Z</time>
      </trkpt>
      <trkpt lat="47.90616" lon="-3.46275">
        <ele>42</ele>
        <time>2017-01-14T09:25:00Z</time>
      </trkpt>
      <trkpt lat="47.90621" lon="-3.46273">
        <ele>42</ele>
        <time>2017-01-14T09:27:00Z</time>
      </trkpt>
      <trkpt lat="47.90616" lon="-3.46275">
        <ele>42</ele>
        <time>2017-01-14T09:29:00Z</time>
      </trkpt>
      <trkpt lat="47.90601" lon="-3.46275">
        <ele>41</ele>
        <time>2017-01-14T09:31:00Z</time>
      </trkpt>
      <trkpt lat="47.90597" lon="-3.46271">
        <ele>40</ele>
        <time>2017-01-14T09:33:00Z</time>
      </trkpt>
      <trkpt lat="47.90595" lon="-3.46288">
        <ele>40</ele>
        <time>2017-01-14T09:35:00Z</time>
      </trkpt>
      <trkpt lat="47.90593" lon="-3.46297">
        <ele>40</ele>
        <time>2017-01-14T09:37:00Z</time>
      </trkpt>
      <trkpt lat="47.90591" lon="-3.46301">
        <ele>40</ele>
        <time>2017-01-14T09:39:00Z</time>
      </trkpt>
      <trkpt lat="47.9057" lon="-3.46298">
        <ele>39</ele>
        <time>2017-01-14T09:41:00Z</time>
      </trkpt>
      <trkpt lat="47.90571" lon="-3.46286">
        <ele>39</ele>
        <time>2017-01-14T09:43:00Z</time>
      </trkpt>
      <trkpt lat="47.9057" lon="-3.46298">
        <ele>39</ele>
        <time>2017-01-14T09:45:00Z</time>
      </trkpt>
      <trkpt lat="47.90591" lon="-3.46301">
        <ele>40</ele>
        <time>2017-01-14T09:47:00Z</time>
      </trkpt>
      <trkpt lat="47.9055" lon="-3.46295">
        <ele>38</ele>
        <time>2017-01-14T09:49:00Z</time>
      </trkpt>
      <trkpt lat="47.90526" lon="-3.46295">
        <ele>37</ele>
        <time>2017-01-14T09:51:00Z</time>
      </trkpt>
      <trkpt lat="47.90483" lon="-3.46299">
        <ele>34</ele>
        <time>2017-01-14T09:53:00Z</time>
      </trkpt>
      <trkpt lat="47.90468" lon="-3.46299">
        <ele>33</ele>
        <time>2017-01-14T09:55:00Z</time>
      </trkpt>
      <trkpt lat="47.90453" lon="-3.46297">
        <ele>32</ele>
        <time>2017-01-14T09:57:00Z</time>
      </trkpt>
      <trkpt lat="47.90443" lon="-3.46294">
        <ele>31</ele>
        <time>2017-01-14T09:59:00Z</time>
      </trkpt>
      <trkpt lat="47.90442" lon="-3.46299">
        <ele>31</ele>
        <time>2017-01-14T10:01:00Z</time>
      </trkpt>
      <trkpt lat="47.90443" lon="-3.46294">
        <ele>31</ele>
        <time>2017-01-14T10:03:00Z</time>
      </trkpt>
      <trkpt lat="47.90453" lon="-3.46297">
        <ele>32</ele>
        <time>2017-01-14T10:05:00Z</time>
      </trkpt>
      <trkpt lat="47.90432" lon="-3.4629">
        <ele>30</ele>
        <time>2017-01-14T10:07:00Z</time>
      </trkpt>
      <trkpt lat="47.90415" lon="-3.46284">
        <ele>29</ele>
        <time>2017-01-14T10:09:00Z</time>
      </trkpt>
      <trkpt lat="47.90391" lon="-3.46282">
        <ele>28</ele>
        <time>2017-01-14T10:11:00Z</time>
      </trkpt>
      <trkpt lat="47.90347" lon="-3.46274">
        <ele>25</ele>
        <time>2017-01-14T10:13:00Z</time>
      </trkpt>
      <trkpt lat="47.90354" lon="-3.46275">
        <ele>26</ele>
        <time>2017-01-14T10:15:00Z</time>
      </trkpt>
      <trkpt lat="47.90344" lon="-3.46273">
        <ele>25</ele>
        <time>2017-01-14T10:17:00Z</time>
      </trkpt>
      <trkpt lat="47.90344" lon="-3.46277">
        <ele>25</ele>
        <time>2017-01-14T10:19:00Z</time>
      </trkpt>
      <trkpt lat="47.90339" lon="-3.46295">
        <ele>25</ele>
        <time>2017-01-14T10:21:00Z</time>
      </trkpt>
      <trkpt lat="47.90335" lon="-3.46325">
        <ele>24</ele>
        <time>2017-01-14T10:23:00Z</time>
      </trkpt>
      <trkpt lat="47.90327" lon="-3.46395">
        <ele>25</ele>
        <time>2017-01-14T10:25:00Z</time>
      </trkpt>
      <trkpt lat="47.90326" lon="-3.4641">
        <ele>25</ele>
        <time>2017-01-14T10:27:00Z</time>
      </trkpt>
      <trkpt lat="47.90307" lon="-3.46407">
        <ele>27</ele>
        <time>2017-01-14T10:29:00Z</time>
      </trkpt>
      <trkpt lat="47.90326" lon="-3.4641">
        <ele>25</ele>
        <time>2017-01-14T10:31:00Z</time>
      </trkpt>
      <trkpt lat="47.90327" lon="-3.46395">
        <ele>25</ele>
        <time>2017-01-14T10:33:00Z</time>
      </trkpt>
      <trkpt lat="47.90324" lon="-3.46434">
        <ele>25</ele>
        <time>2017-01-14T10:35:00Z</time>
      </trkpt>
      <trkpt lat="47.9032" lon="-3.46466">
        <ele>24</ele>
        <time>2017-01-14T10:37:00Z</time>
      </trkpt>
      <trkpt lat="47.9032" lon="-3.46578">
        <ele>22</ele>
        <time>2017-01-14T10:39:00Z</time>
      </trkpt>
      <trkpt lat="47.90327" lon="-3.46617">
        <ele>26</ele>
        <time>2017-01-14T10:41:00Z</time>
      </trkpt>
      <trkpt lat="47.90333" lon="-3.46625">
        <ele>27</ele>
        <time>2017-01-14T10:43:00Z</time>
      </trkpt>
      <trkpt lat="47.90363" lon="-3.46647">
        <ele>28</ele>
        <time>2017-01-14T10:45:00Z</time>
      </trkpt>
      <trkpt lat="47.90376" lon="-3.46651">
        <ele>28</ele>
        <time>2017-01-14T10:47:00Z</time>
      </trkpt>
      <trkpt lat="47.90393" lon="-3.46649">
        <ele>27</ele>
        <time>2017-01-14T10:49:00Z</time>
      </trkpt>
      <trkpt lat="47.90408" lon="-3.46651">
        <ele>26</ele>
        <time>2017-01-14T10:51:00Z</time>
      </trkpt>
      <trkpt lat="47.9046" lon="-3.46679">
        <ele>28</ele>
        <time>2017-01-14T10:53:00Z</time>
      </trkpt>
      <trkpt lat="47.90492" lon="-3.46683">
        <ele>27</ele>
        <time>2017-01-14T10:55:00Z</time>
      </trkpt>
      <trkpt lat="47.90507" lon="-3.46677">
        <ele>26</ele>
        <time>2017-01-14T10:57:00Z</time>
      </trkpt>
      <trkpt lat="47.90513" lon="-3.46664">
        <ele>25</ele>
        <time>2017-01-14T10:59:00Z</time>
      </trkpt>
      <trkpt lat="47.9053" lon="-3.46636">
        <ele>24</ele>
        <time>2017-01-14T11:01:00Z</time>
      </trkpt>
      <trkpt lat="47.90535" lon="-3.46629">
        <ele>24</ele>
        <time>2017-01-14T11:03:00Z</time>
      </trkpt>
      <trkpt lat="47.90576" lon="-3.46582">
        <ele>24</ele>
        <time>2017-01-14T11:05:00Z</time>
      </trkpt>
      <trkpt lat="47.90586" lon="-3.46563">
        <ele>26</ele>
        <time>2017-01-14T11:07:00Z</time>
      </trkpt>
      <trkpt lat="47.90606" lon="-3.46567">
        <ele>25</ele>
        <time>2017-01-14T11:09:00Z</time>
      </trkpt>
      <trkpt lat="47.90625" lon="-3.46552">
        <ele>27</ele>
        <time>2017-01-14T11:11:00Z</time>
      </trkpt>
      <trkpt lat="47.90642" lon="-3.46546">
        <ele>27</ele>
        <time>2017-01-14T11:13:00Z</time>
      </trkpt>
      <trkpt lat="47.90646" lon="-3.46548">
        <ele>27</ele>
        <time>2017-01-14T11:15:00Z</time>
      </trkpt>
      <trkpt lat="47.90657" lon="-3.46544">
        <ele>27</ele>
        <time>2017-01-14T11:17:00Z</time>
      </trkpt>
      <trkpt lat="47.90679" lon="-3.46539">
        <ele>29</ele>
        <time>2017-01-14T11:19:00Z</time>
      </trkpt>
      <trkpt lat="47.90706" lon="-3.46556">
        <ele>30</ele>
        <time>2017-01-14T11:21:00Z</time>
      </trkpt>
      <trkpt lat="47.90728" lon="-3.46574">
        <ele>30</ele>
        <time>2017-01-14T11:23:00Z</time>
      </trkpt>
      <trkpt lat="47.90743" lon="-3.46584">
        <ele>30</ele>
        <time>2017-01-14T11:25:00Z</time>
      </trkpt>
      <trkpt lat="47.90747" lon="-3.46582">
        <ele>31</ele>
        <time>2017-01-14T11:27:00Z</time>
      </trkpt>
      <trkpt lat="47.90758" lon="-3.46589">
        <ele>32</ele>
        <time>2017-01-14T11:29:00Z</time>
      </trkpt>
      <trkpt lat="47.90786" lon="-3.46636">
        <ele>34</ele>
        <time>2017-01-14T11:31:00Z</time>
      </trkpt>
      <trkpt lat="47.90792" lon="-3.46644">
        <ele>35</ele>
        <time>2017-01-14T11:33:00Z</time>
      </trkpt>
      <trkpt lat="47.90809" lon="-3.46659">
        <ele>36</ele>
        <time>2017-01-14T11:35:00Z</time>
      </trkpt>
      <trkpt lat="47.90827" lon="-3.46687">
        <ele>37</ele>
        <time>2017-01-14T11:37:00Z</time>
      </trkpt>
      <trkpt lat="47.90833" lon="-3.46707">
        <ele>36</ele>
        <time>2017-01-14T11:39:00Z</time>
      </trkpt>
      <trkpt lat="47.90837" lon="-3.46726">
        <ele>34</ele>
        <time>2017-01-14T11:41:00Z</time>
      </trkpt>
      <trkpt lat="47.90848" lon="-3.46762">
        <ele>34</ele>
        <time>2017-01-14T11:43:00Z</time>
      </trkpt>
      <trkpt lat="47.90835" lon="-3.46775">
        <ele>32</ele>
        <time>2017-01-14T11:45:00Z</time>
      </trkpt>
      <trkpt lat="47.90818" lon="-3.46887">
        <ele>35</ele>
        <time>2017-01-14T11:47:00Z</time>
      </trkpt>
      <trkpt lat="47.90792" lon="-3.46981">
        <ele>37</ele>
        <time>2017-01-14T11:49:00Z</time>
      </trkpt>
      <trkpt lat="47.90719" lon="-3.47041">
        <ele>40</ele>
        <time>2017-01-14T11:51:00Z</time>
      </trkpt>
      <trkpt lat="47.907" lon="-3.47048">
        <ele>42</ele>
        <time>2017-01-14T11:53:00Z</time>
      </trkpt>
      <trkpt lat="47.90694" lon="-3.47046">
        <ele>42</ele>
        <time>2017-01-14T11:55:00Z</time>
      </trkpt>
      <trkpt lat="47.90679" lon="-3.47033">
        <ele>39</ele>
        <time>2017-01-14T11:57:00Z</time>
      </trkpt>
      <trkpt lat="47.90676" lon="-3.47022">
        <ele>36</ele>
        <time>2017-01-14T11:59:00Z</time>
      </trkpt>
      <trkpt lat="47.9067" lon="-3.47011">
        <ele>34</ele>
        <time>2017-01-14T12:01:00Z</time>
      </trkpt>
      <trkpt lat="47.9064" lon="-3.46981">
        <ele>31</ele>
        <time>2017-01-14T12:03:00Z</time>
      </trkpt>
      <trkpt lat="47.90614" lon="-3.46949">
        <ele>29</ele>
        <time>2017-01-14T12:05:00Z</time>
      </trkpt>
      <trkpt lat="47.90601" lon="-3.46938">
        <ele>28</ele>
        <time>2017-01-14T12:07:00Z</time>
      </trkpt>
      <trkpt lat="47.90591" lon="-3.46934">
        <ele>28</ele>
        <time>2017-01-14T12:09:00Z</time>
      </trkpt>
      <trkpt lat="47.90592" lon="-3.46935">
        <ele>28</ele>
        <time>2017-01-14T12:11:00Z</time>
      </trkpt>
      <trkpt lat="47.90563" lon="-3.4693">
        <ele>27</ele>
        <time>2017-01-14T12:13:00Z</time>
      </trkpt>
      <trkpt lat="47.90556" lon="-3.46998">
        <ele>37</ele>
        <time>2017-01-14T12:15:00Z</time>
      </trkpt>
      <trkpt lat="47.90567" lon="-3.47005">
        <ele>39</ele>
        <time>2017-01-14T12:17:00Z</time>
      </trkpt>
      <trkpt lat="47.90556" lon="-3.4705">
        <ele>42</ele>
        <time>2017-01-14T12:19:00Z</time>
      </trkpt>
      <trkpt lat="47.9052" lon="-3.47224">
        <ele>40</ele>
        <time>2017-01-14T12:21:00Z</time>
      </trkpt>
      <trkpt lat="47.90599" lon="-3.47179">
        <ele>54</ele>
        <time>2017-01-14T12:23:00Z</time>
      </trkpt>
      <trkpt lat="47.90599" lon="-3.47163">
        <ele>54</ele>
        <time>2017-01-14T12:25:00Z</time>
      </trkpt>
      <trkpt lat="47.90599" lon="-3.47179">
        <ele>54</ele>
        <time>2017-01-14T12:27:00Z</time>
      </trkpt>
      <trkpt lat="47.90612" lon="-3.47172">
        <ele>55</ele>
        <time>2017-01-14T12:29:00Z</time>
      </trkpt>
      <trkpt lat="47.90642" lon="-3.47172">
        <ele>58</ele>
        <time>2017-01-14T12:31:00Z</time>
      </trkpt>
      <trkpt lat="47.90657" lon="-3.47179">
        <ele>59</ele>
        <time>2017-01-14T12:33:00Z</time>
      </trkpt>
      <trkpt lat="47.90672" lon="-3.47181">
        <ele>60</ele>
        <time>2017-01-14T12:35:00Z</time>
      </trkpt>
      <trkpt lat="47.90694" lon="-3.47181">
        <ele>59</ele>
        <time>2017-01-14T12:37:00Z</time>
      </trkpt>
      <trkpt lat="47.90702" lon="-3.47179">
        <ele>59</ele>
        <time>2017-01-14T12:39:00Z</time>
      </trkpt>
      <trkpt lat="47.90699" lon="-3.47177">
        <ele>59</ele>
        <time>2017-01-14T12:41:00Z</time>
      </trkpt>
      <trkpt lat="47.90702" lon="-3.47179">
        <ele>59</ele>
        <time>2017-01-14T12:43:00Z</time>
      </trkpt>
      <trkpt lat="47.90717" lon="-3.47301">
        <ele>58</ele>
        <time>2017-01-14T12:45:00Z</time>
      </trkpt>
      <trkpt lat="47.90732" lon="-3.47284">
        <ele>59</ele>
        <time>2017-01-14T12:47:00Z</time>
      </trkpt>
      <trkpt lat="47.90745" lon="-3.47271">
        <ele>60</ele>
        <time>2017-01-14T12:49:00Z</time>
      </trkpt>
      <trkpt lat="47.90758" lon="-3.47262">
        <ele>60</ele>
        <time>2017-01-14T12:51:00Z</time>
      </trkpt>
      <trkpt lat="47.90766" lon="-3.47239">
        <ele>60</ele>
        <time>2017-01-14T12:53:00Z</time>
      </trkpt>
      <trkpt lat="47.90773" lon="-3.47232">
        <ele>60</ele>
        <time>2017-01-14T12:55:00Z</time>
      </trkpt>
      <trkpt lat="47.90827" lon="-3.47213">
        <ele>59</ele>
        <time>2017-01-14T12:57:00Z</time>
      </trkpt>
      <trkpt lat="47.90844" lon="-3.47202">
        <ele>59</ele>
        <time>2017-01-14T12:59:00Z</time>
      </trkpt>
      <trkpt lat="47.90865" lon="-3.47183">
        <ele>60</ele>
        <time>2017-01-14T13:01:00Z</time>
      </trkpt>
      <trkpt lat="47.90876" lon="-3.47181">
        <ele>60</ele>
        <time>2017-01-14T13:03:00Z</time>
      </trkpt>
      <trkpt lat="47.9088" lon="-3.47183">
        <ele>60</ele>
        <time>2017-01-14T13:05:00Z</time>
      </trkpt>
      <trkpt lat="47.90884" lon="-3.47187">
        <ele>60</ele>
        <time>2017-01-14T13:07:00Z</time>
      </trkpt>
      <trkpt lat="47.90891" lon="-3.47207">
        <ele>60</ele>
        <time>2017-01-14T13:09:00Z</time>
      </trkpt>
      <trkpt lat="47.909" lon="-3.47215">
        <ele>60</ele>
        <time>2017-01-14T13:11:00Z</time>
      </trkpt>
      <trkpt lat="47.90902" lon="-3.47222">
        <ele>60</ele>
        <time>2017-01-14T13:13:00Z</time>
      </trkpt>
      <trkpt lat="47.90902" lon="-3.47329">
        <ele>53</ele>
        <time>2017-01-14T13:15:00Z</time>
      </trkpt>
      <trkpt lat="47.90906" lon="-3.47404">
        <ele>48</ele>
        <time>2017-01-14T13:17:00Z</time>
      </trkpt>
      <trkpt lat="47.90908" lon="-3.47417">
        <ele>47</ele>
        <time>2017-01-14T13:19:00Z</time>
      </trkpt>
      <trkpt lat="47.90902" lon="-3.47443">
        <ele>45</ele>
        <time>2017-01-14T13:21:00Z</time>
      </trkpt>
      <trkpt lat="47.909" lon="-3.47494">
        <ele>41</ele>
        <time>2017-01-14T13:23:00Z</time>
      </trkpt>
      <trkpt lat="47.909" lon="-3.47578">
        <ele>37</ele>
        <time>2017-01-14T13:25:00Z</time>
      </trkpt>
      <trkpt lat="47.90902" lon="-3.47589">
        <ele>36</ele>
        <time>2017-01-14T13:27:00Z</time>
      </trkpt>
      <trkpt lat="47.90914" lon="-3.47645">
        <ele>38</ele>
        <time>2017-01-14T13:29:00Z</time>
      </trkpt>
      <trkpt lat="47.90925" lon="-3.4764">
        <ele>38</ele>
        <time>2017-01-14T13:31:00Z</time>
      </trkpt>
      <trkpt lat="47.90914" lon="-3.47645">
        <ele>38</ele>
        <time>2017-01-14T13:33:00Z</time>
      </trkpt>
      <trkpt lat="47.90915" lon="-3.47694">
        <ele>42</ele>
        <time>2017-01-14T13:35:00Z</time>
      </trkpt>
      <trkpt lat="47.90917" lon="-3.47711">
        <ele>43</ele>
        <time>2017-01-14T13:37:00Z</time>
      </trkpt>
      <trkpt lat="47.90917" lon="-3.47717">
        <ele>44</ele>
        <time>2017-01-14T13:39:00Z</time>
      </trkpt>
      <trkpt lat="47.90923" lon="-3.47749">
        <ele>47</ele>
        <time>2017-01-14T13:41:00Z</time>
      </trkpt>
      <trkpt lat="47.9093" lon="-3.47773">
        <ele>49</ele>
        <time>2017-01-14T13:43:00Z</time>
      </trkpt>
      <trkpt lat="47.90938" lon="-3.47781">
        <ele>50</ele>
        <time>2017-01-14T13:45:00Z</time>
      </trkpt>
      <trkpt lat="47.9094" lon="-3.47777">
        <ele>50</ele>
        <time>2017-01-14T13:47:00Z</time>
      </trkpt>
      <trkpt lat="47.90938" lon="-3.47781">
        <ele>50</ele>
        <time>2017-01-14T13:49:00Z</time>
      </trkpt>
      <trkpt lat="47.9093" lon="-3.47773">
        <ele>49</ele>
        <time>2017-01-14T13:51:00Z</time>
      </trkpt>
      <trkpt lat="47.9094" lon="-3.47784">
        <ele>50</ele>
        <time>2017-01-14T13:53:00Z</time>
      </trkpt>
      <trkpt lat="47.90981" lon="-3.47792">
        <ele>51</ele>
        <time>2017-01-14T13:55:00Z</time>
      </trkpt>
      <trkpt lat="47.91007" lon="-3.47803">
        <ele>52</ele>
        <time>2017-01-14T13:57:00Z</time>
      </trkpt>
      <trkpt lat="47.9102" lon="-3.47818">
        <ele>52</ele>
        <time>2017-01-14T13:59:00Z</time>
      </trkpt>
      <trkpt lat="47.91033" lon="-3.47795">
        <ele>49</ele>
        <time>2017-01-14T14:01:00Z</time>
      </trkpt>
      <trkpt lat="47.9102" lon="-3.47818">
        <ele>52</ele>
        <time>2017-01-14T14:03:00Z</time>
      </trkpt>
      <trkpt lat="47.91007" lon="-3.47803">
        <ele>52</ele>
        <time>2017-01-14T14:05:00Z</time>
      </trkpt>
      <trkpt lat="47.9102" lon="-3.47818">
        <ele>52</ele>
        <time>2017-01-14T14:07:00Z</time>
      </trkpt>
      <trkpt lat="47.91028" lon="-3.47835">
        <ele>53</ele>
        <time>2017-01-14T14:09:00Z</time>
      </trkpt>
      <trkpt lat="47.9103" lon="-3.47846">
        <ele>54</ele>
        <time>2017-01-14T14:11:00Z</time>
      </trkpt>
      <trkpt lat="47.91033" lon="-3.47855">
        <ele>55</ele>
        <time>2017-01-14T14:13:00Z</time>
      </trkpt>
      <trkpt lat="47.91033" lon="-3.47908">
        <ele>59</ele>
        <time>2017-01-14T14:15:00Z</time>
      </trkpt>
      <trkpt lat="47.91031" lon="-3.47925">
        <ele>60</ele>
        <time>2017-01-14T14:17:00Z</time>
      </trkpt>
      <trkpt lat="47.91033" lon="-3.47908">
        <ele>59</ele>
        <time>2017-01-14T14:19:00Z</time>
      </trkpt>
      <trkpt lat="47.91026" lon="-3.47996">
        <ele>64</ele>
        <time>2017-01-14T14:21:00Z</time>
      </trkpt>
      <trkpt lat="47.91026" lon="-3.48013">
        <ele>65</ele>
        <time>2017-01-14T14:23:00Z</time>
      </trkpt>
      <trkpt lat="47.9102" lon="-3.48082">
        <ele>69</ele>
        <time>2017-01-14T14:25:00Z</time>
      </trkpt>
      <trkpt lat="47.91015" lon="-3.48095">
        <ele>69</ele>
        <time>2017-01-14T14:27:00Z</time>
      </trkpt>
      <trkpt lat="47.91011" lon="-3.48103">
        <ele>69</ele>
        <time>2017-01-14T14:29:00Z</time>
      </trkpt>
      <trkpt lat="47.91015" lon="-3.48095">
        <ele>69</ele>
        <time>2017-01-14T14:31:00Z</time>
      </trkpt>
      <trkpt lat="47.91009" lon="-3.48108">
        <ele>69</ele>
        <time>2017-01-14T14:33:00Z</time>
      </trkpt>
      <trkpt lat="47.90994" lon="-3.48134">
        <ele>70</ele>
        <time>2017-01-14T14:35:00Z</time>
      </trkpt>
      <trkpt lat="47.90985" lon="-3.48153">
        <ele>72</ele>
        <time>2017-01-14T14:37:00Z</time>
      </trkpt>
      <trkpt lat="47.90981" lon="-3.48172">
        <ele>73</ele>
        <time>2017-01-14T14:39:00Z</time>
      </trkpt>
      <trkpt lat="47.90979" lon="-3.48202">
        <ele>74</ele>
        <time>2017-01-14T14:41:00Z</time>
      </trkpt>
      <trkpt lat="47.90977" lon="-3.48241">
        <ele>76</ele>
        <time>2017-01-14T14:43:00Z</time>
      </trkpt>
      <trkpt lat="47.90977" lon="-3.48288">
        <ele>78</ele>
        <time>2017-01-14T14:45:00Z</time>
      </trkpt>
      <trkpt lat="47.90979" lon="-3.48329">
        <ele>79</ele>
        <time>2017-01-14T14:47:00Z</time>
      </trkpt>
      <trkpt lat="47.90985" lon="-3.48365">
        <ele>79</ele>
        <time>2017-01-14T14:49:00Z</time>
      </trkpt>
      <trkpt lat="47.90992" lon="-3.484">
        <ele>80</ele>
        <time>2017-01-14T14:51:00Z</time>
      </trkpt>
      <trkpt lat="47.90996" lon="-3.48408">
        <ele>80</ele>
        <time>2017-01-14T14:53:00Z</time>
      </trkpt>
      <trkpt lat="47.91019" lon="-3.48472">
        <ele>81</ele>
        <time>2017-01-14T14:55:00Z</time>
      </trkpt>
      <trkpt lat="47.91032" lon="-3.48528">
        <ele>81</ele>
        <time>2017-01-14T14:57:00Z</time>
      </trkpt>
      <trkpt lat="47.91042" lon="-3.48595">
        <ele>82</ele>
        <time>2017-01-14T14:59:00Z</time>
      </trkpt>
      <trkpt lat="47.91046" lon="-3.48609">
        <ele>82</ele>
        <time>2017-01-14T15:01:00Z</time>
      </trkpt>
      <trkpt lat="47.91044" lon="-3.48624">
        <ele>82</ele>
        <time>2017-01-14T15:03:00Z</time>
      </trkpt>
      <trkpt lat="47.91033" lon="-3.48677">
        <ele>82</ele>
        <time>2017-01-14T15:05:00Z</time>
      </trkpt>
      <trkpt lat="47.91032" lon="-3.48704">
        <ele>82</ele>
        <time>2017-01-14T15:07:00Z</time>
      </trkpt>
      <trkpt lat="47.91059" lon="-3.48832">
        <ele>78</ele>
        <time>2017-01-14T15:09:00Z</time>
      </trkpt>
      <trkpt lat="47.91071" lon="-3.48942">
        <ele>72</ele>
        <time>2017-01-14T15:11:00Z</time>
      </trkpt>
      <trkpt lat="47.91081" lon="-3.48997">
        <ele>70</ele>
        <time>2017-01-14T15:13:00Z</time>
      </trkpt>
      <trkpt lat="47.91098" lon="-3.49047">
        <ele>71</ele>
        <time>2017-01-14T15:15:00Z</time>
      </trkpt>
      <trkpt lat="47.91097" lon="-3.49083">
        <ele>71</ele>
        <time>2017-01-14T15:17:00Z</time>
      </trkpt>
      <trkpt lat="47.91093" lon="-3.49109">
        <ele>72</ele>
        <time>2017-01-14T15:19:00Z</time>
      </trkpt>
      <trkpt lat="47.91084" lon="-3.49158">
        <ele>75</ele>
        <time>2017-01-14T15:21:00Z</time>
      </trkpt>
      <trkpt lat="47.91078" lon="-3.49223">
        <ele>77</ele>
        <time>2017-01-14T15:23:00Z</time>
      </trkpt>
      <trkpt lat="47.91078" lon="-3.49311">
        <ele>79</ele>
        <time>2017-01-14T15:25:00Z</time>
      </trkpt>
      <trkpt lat="47.9108" lon="-3.49349">
        <ele>80</ele>
        <time>2017-01-14T15:27:00Z</time>
      </trkpt>
      <trkpt lat="47.91022" lon="-3.49361">
        <ele>77</ele>
        <time>2017-01-14T15:29:00Z</time>
      </trkpt>
      <trkpt lat="47.90999" lon="-3.49398">
        <ele>77</ele>
        <time>2017-01-14T15:31:00Z</time>
      </trkpt>
      <trkpt lat="47.90982" lon="-3.49429">
        <ele>76</ele>
        <time>2017-01-14T15:33:00Z</time>
      </trkpt>
      <trkpt lat="47.9097" lon="-3.49437">
        <ele>76</ele>
        <time>2017-01-14T15:35:00Z</time>
      </trkpt>
      <trkpt lat="47.90954" lon="-3.49444">
        <ele>75</ele>
        <time>2017-01-14T15:37:00Z</time>
      </trkpt>
      <trkpt lat="47.90938" lon="-3.49431">
        <ele>74</ele>
        <time>2017-01-14T15:39:00Z</time>
      </trkpt>
      <trkpt lat="47.90846" lon="-3.49282">
        <ele>68</ele>
        <time>2017-01-14T15:41:00Z</time>
      </trkpt>
      <trkpt lat="47.90756" lon="-3.49168">
        <ele>62</ele>
        <time>2017-01-14T15:43:00Z</time>
      </trkpt>
      <trkpt lat="47.90726" lon="-3.49138">
        <ele>60</ele>
        <time>2017-01-14T15:45:00Z</time>
      </trkpt>
      <trkpt lat="47.90647" lon="-3.49076">
        <ele>55</ele>
        <time>2017-01-14T15:47:00Z</time>
      </trkpt>
      <trkpt lat="47.90603" lon="-3.49017">
        <ele>50</ele>
        <time>2017-01-14T15:49:00Z</time>
      </trkpt>
      <trkpt lat="47.9058" lon="-3.4897">
        <ele>47</ele>
        <time>2017-01-14T15:51:00Z</time>
      </trkpt>
      <trkpt lat="47.90557" lon="-3.48912">
        <ele>43</ele>
        <time>2017-01-14T15:53:00Z</time>
      </trkpt>
      <trkpt lat="47.9055" lon="-3.48904">
        <ele>43</ele>
        <time>2017-01-14T15:55:00Z</time>
      </trkpt>
      <trkpt lat="47.90472" lon="-3.48841">
        <ele>37</ele>
        <time>2017-01-14T15:57:00Z</time>
      </trkpt>
      <trkpt lat="47.90413" lon="-3.48803">
        <ele>35</ele>
        <time>2017-01-14T15:59:00Z</time>
      </trkpt>
      <trkpt lat="47.9037" lon="-3.48777">
        <ele>32</ele>
        <time>2017-01-14T16:01:00Z</time>
      </trkpt>
      <trkpt lat="47.90352" lon="-3.48767">
        <ele>30</ele>
        <time>2017-01-14T16:03:00Z</time>
      </trkpt>
      <trkpt lat="47.9037" lon="-3.48777">
        <ele>32</ele>
        <time>2017-01-14T16:05:00Z</time>
      </trkpt>
      <trkpt lat="47.90299" lon="-3.48734">
        <ele>27</ele>
        <time>2017-01-14T16:07:00Z</time>
      </trkpt>
      <trkpt lat="47.90231" lon="-3.48705">
        <ele>24</ele>
        <time>2017-01-14T16:09:00Z</time>
      </trkpt>
      <trkpt lat="47.90157" lon="-3.48697">
        <ele>21</ele>
        <time>2017-01-14T16:11:00Z</time>
      </trkpt>
      <trkpt lat="47.90096" lon="-3.48697">
        <ele>20</ele>
        <time>2017-01-14T16:13:00Z</time>
      </trkpt>
      <trkpt lat="47.90066" lon="-3.48718">
        <ele>24</ele>
        <time>2017-01-14T16:15:00Z</time>
      </trkpt>
      <trkpt lat="47.90067" lon="-3.48757">
        <ele>25</ele>
        <time>2017-01-14T16:17:00Z</time>
      </trkpt>
      <trkpt lat="47.90179" lon="-3.49056">
        <ele>22</ele>
        <time>2017-01-14T16:19:00Z</time>
      </trkpt>
      <trkpt lat="47.90229" lon="-3.49022">
        <ele>23</ele>
        <time>2017-01-14T16:21:00Z</time>
      </trkpt>
      <trkpt lat="47.90254" lon="-3.49069">
        <ele>24</ele>
        <time>2017-01-14T16:23:00Z</time>
      </trkpt>
      <trkpt lat="47.90254" lon="-3.49129">
        <ele>23</ele>
        <time>2017-01-14T16:25:00Z</time>
      </trkpt>
      <trkpt lat="47.90254" lon="-3.49153">
        <ele>23</ele>
        <time>2017-01-14T16:27:00Z</time>
      </trkpt>
      <trkpt lat="47.90258" lon="-3.4917">
        <ele>23</ele>
        <time>2017-01-14T16:29:00Z</time>
      </trkpt>
      <trkpt lat="47.90255" lon="-3.49177">
        <ele>23</ele>
        <time>2017-01-14T16:31:00Z</time>
      </trkpt>
      <trkpt lat="47.90258" lon="-3.4917">
        <ele>23</ele>
        <time>2017-01-14T16:33:00Z</time>
      </trkpt>
      <trkpt lat="47.90245" lon="-3.49202">
        <ele>23</ele>
        <time>2017-01-14T16:35:00Z</time>
      </trkpt>
      <trkpt lat="47.90239" lon="-3.49234">
        <ele>23</ele>
        <time>2017-01-14T16:37:00Z</time>
      </trkpt>
      <trkpt lat="47.90238" lon="-3.49246">
        <ele>24</ele>
        <time>2017-01-14T16:39:00Z</time>
      </trkpt>
      <trkpt lat="47.90239" lon="-3.49234">
        <ele>23</ele>
        <time>2017-01-14T16:41:00Z</time>
      </trkpt>
      <trkpt lat="47.90236" lon="-3.49271">
        <ele>23</ele>
        <time>2017-01-14T16:43:00Z</time>
      </trkpt>
      <trkpt lat="47.90243" lon="-3.49312">
        <ele>22</ele>
        <time>2017-01-14T16:45:00Z</time>
      </trkpt>
      <trkpt lat="47.90256" lon="-3.49327">
        <ele>22</ele>
        <time>2017-01-14T16:47:00Z</time>
      </trkpt>
      <trkpt lat="47.90258" lon="-3.49333">
        <ele>22</ele>
        <time>2017-01-14T16:49:00Z</time>
      </trkpt>
      <trkpt lat="47.90262" lon="-3.49359">
        <ele>25</ele>
        <time>2017-01-14T16:51:00Z</time>
      </trkpt>
      <trkpt lat="47.90256" lon="-3.49367">
        <ele>25</ele>
        <time>2017-01-14T16:53:00Z</time>
      </trkpt>
      <trkpt lat="47.90256" lon="-3.49378">
        <ele>26</ele>
        <time>2017-01-14T16:55:00Z</time>
      </trkpt>
      <trkpt lat="47.90247" lon="-3.49387">
        <ele>26</ele>
        <time>2017-01-14T16:57:00Z</time>
      </trkpt>
      <trkpt lat="47.90253" lon="-3.49403">
        <ele>28</ele>
        <time>2017-01-14T16:59:00Z</time>
      </trkpt>
      <trkpt lat="47.90258" lon="-3.494">
        <ele>28</ele>
        <time>2017-01-14T17:01:00Z</time>
      </trkpt>
      <trkpt lat="47.90253" lon="-3.49403">
        <ele>28</ele>
        <time>2017-01-14T17:03:00Z</time>
      </trkpt>
      <trkpt lat="47.90247" lon="-3.49387">
        <ele>26</ele>
        <time>2017-01-14T17:05:00Z</time>
      </trkpt>
      <trkpt lat="47.90256" lon="-3.49378">
        <ele>26</ele>
        <time>2017-01-14T17:07:00Z</time>
      </trkpt>
      <trkpt lat="47.9026" lon="-3.49376">
        <ele>26</ele>
        <time>2017-01-14T17:09:00Z</time>
      </trkpt>
      <trkpt lat="47.90267" lon="-3.49376">
        <ele>27</ele>
        <time>2017-01-14T17:11:00Z</time>
      </trkpt>
      <trkpt lat="47.9029" lon="-3.49385">
        <ele>29</ele>
        <time>2017-01-14T17:13:00Z</time>
      </trkpt>
      <trkpt lat="47.90297" lon="-3.49386">
        <ele>29</ele>
        <time>2017-01-14T17:15:00Z</time>
      </trkpt>
      <trkpt lat="47.9029" lon="-3.49385">
        <ele>29</ele>
        <time>2017-01-14T17:17:00Z</time>
      </trkpt>
      <trkpt lat="47.90307" lon="-3.49389">
        <ele>30</ele>
        <time>2017-01-14T17:19:00Z</time>
      </trkpt>
      <trkpt lat="47.90333" lon="-3.49397">
        <ele>32</ele>
        <time>2017-01-14T17:21:00Z</time>
      </trkpt>
      <trkpt lat="47.90348" lon="-3.49404">
        <ele>32</ele>
        <time>2017-01-14T17:23:00Z</time>
      </trkpt>
      <trkpt lat="47.90357" lon="-3.49408">
        <ele>32</ele>
        <time>2017-01-14T17:25:00Z</time>
      </trkpt>
      <trkpt lat="47.90369" lon="-3.49416">
        <ele>31</ele>
        <time>2017-01-14T17:27:00Z</time>
      </trkpt>
      <trkpt lat="47.90367" lon="-3.49424">
        <ele>33</ele>
        <time>2017-01-14T17:29:00Z</time>
      </trkpt>
      <trkpt lat="47.90369" lon="-3.49416">
        <ele>31</ele>
        <time>2017-01-14T17:31:00Z</time>
      </trkpt>
      <trkpt lat="47.90363" lon="-3.49412">
        <ele>32</ele>
        <time>2017-01-14T17:33:00Z</time>
      </trkpt>
      <trkpt lat="47.9037" lon="-3.49417">
        <ele>31</ele>
        <time>2017-01-14T17:35:00Z</time>
      </trkpt>
      <trkpt lat="47.90376" lon="-3.49423">
        <ele>32</ele>
        <time>2017-01-14T17:37:00Z</time>
      </trkpt>
      <trkpt lat="47.9038" lon="-3.49432">
        <ele>32</ele>
        <time>2017-01-14T17:39:00Z</time>
      </trkpt>
      <trkpt lat="47.90385" lon="-3.49445">
        <ele>33</ele>
        <time>2017-01-14T17:41:00Z</time>
      </trkpt>
      <trkpt lat="47.90402" lon="-3.49548">
        <ele>36</ele>
        <time>2017-01-14T17:43:00Z</time>
      </trkpt>
      <trkpt lat="47.90405" lon="-3.49572">
        <ele>35</ele>
        <time>2017-01-14T17:45:00Z</time>
      </trkpt>
      <trkpt lat="47.90402" lon="-3.49548">
        <ele>36</ele>
        <time>2017-01-14T17:47:00Z</time>
      </trkpt>
      <trkpt lat="47.90406" lon="-3.49578">
        <ele>35</ele>
        <time>2017-01-14T17:49:00Z</time>
      </trkpt>
      <trkpt lat="47.90408" lon="-3.49595">
        <ele>35</ele>
        <time>2017-01-14T17:51:00Z</time>
      </trkpt>
      <trkpt lat="47.9041" lon="-3.49623">
        <ele>35</ele>
        <time>2017-01-14T17:53:00Z</time>
      </trkpt>
      <trkpt lat="47.9041" lon="-3.49653">
        <ele>35</ele>
        <time>2017-01-14T17:55:00Z</time>
      </trkpt>
      <trkpt lat="47.90408" lon="-3.49674">
        <ele>36</ele>
        <time>2017-01-14T17:57:00Z</time>
      </trkpt>
      <trkpt lat="47.90408" lon="-3.49702">
        <ele>36</ele>
        <time>2017-01-14T17:59:00Z</time>
      </trkpt>
      <trkpt lat="47.90406" lon="-3.49713">
        <ele>37</ele>
        <time>2017-01-14T18:01:00Z</time>
      </trkpt>
      <trkpt lat="47.90406" lon="-3.49726">
        <ele>38</ele>
        <time>2017-01-14T18:03:00Z</time>
      </trkpt>
      <trkpt lat="47.90404" lon="-3.49736">
        <ele>38</ele>
        <time>2017-01-14T18:05:00Z</time>
      </trkpt>
      <trkpt lat="47.90404" lon="-3.49764">
        <ele>40</ele>
        <time>2017-01-14T18:07:00Z</time>
      </trkpt>
      <trkpt lat="47.90402" lon="-3.49775">
        <ele>41</ele>
        <time>2017-01-14T18:09:00Z</time>
      </trkpt>
      <trkpt lat="47.904" lon="-3.49797">
        <ele>42</ele>
        <time>2017-01-14T18:11:00Z</time>
      </trkpt>
      <trkpt lat="47.90395" lon="-3.49812">
        <ele>44</ele>
        <time>2017-01-14T18:13:00Z</time>
      </trkpt>
      <trkpt lat="47.90391" lon="-3.49835">
        <ele>46</ele>
        <time>2017-01-14T18:15:00Z</time>
      </trkpt>
      <trkpt lat="47.9038" lon="-3.49878">
        <ele>50</ele>
        <time>2017-01-14T18:17:00Z</time>
      </trkpt>
      <trkpt lat="47.90376" lon="-3.49897">
        <ele>51</ele>
        <time>2017-01-14T18:19:00Z</time>
      </trkpt>
      <trkpt lat="47.90367" lon="-3.49949">
        <ele>54</ele>
        <time>2017-01-14T18:21:00Z</time>
      </trkpt>
      <trkpt lat="47.90402" lon="-3.49968">
        <ele>50</ele>
        <time>2017-01-14T18:23:00Z</time>
      </trkpt>
      <trkpt lat="47.90404" lon="-3.49962">
        <ele>49</ele>
        <time>2017-01-14T18:25:00Z</time>
      </trkpt>
      <trkpt lat="47.904" lon="-3.49957">
        <ele>49</ele>
        <time>2017-01-14T18:27:00Z</time>
      </trkpt>
      <trkpt lat="47.90404" lon="-3.49962">
        <ele>49</ele>
        <time>2017-01-14T18:29:00Z</time>
      </trkpt>
      <trkpt lat="47.9041" lon="-3.49947">
        <ele>47</ele>
        <time>2017-01-14T18:31:00Z</time>
      </trkpt>
      <trkpt lat="47.90432" lon="-3.49897">
        <ele>44</ele>
        <time>2017-01-14T18:33:00Z</time>
      </trkpt>
      <trkpt lat="47.90453" lon="-3.49831">
        <ele>39</ele>
        <time>2017-01-14T18:35:00Z</time>
      </trkpt>
      <trkpt lat="47.9044" lon="-3.49872">
        <ele>42</ele>
        <time>2017-01-14T18:37:00Z</time>
      </trkpt>
      <trkpt lat="47.90428" lon="-3.49863">
        <ele>42</ele>
        <time>2017-01-14T18:39:00Z</time>
      </trkpt>
      <trkpt lat="47.9044" lon="-3.49872">
        <ele>42</ele>
        <time>2017-01-14T18:41:00Z</time>
      </trkpt>
      <trkpt lat="47.90453" lon="-3.49831">
        <ele>39</ele>
        <time>2017-01-14T18:43:00Z</time>
      </trkpt>
      <trkpt lat="47.9046" lon="-3.49803">
        <ele>37</ele>
        <time>2017-01-14T18:45:00Z</time>
      </trkpt>
      <trkpt lat="47.90473" lon="-3.49786">
        <ele>35</ele>
        <time>2017-01-14T18:47:00Z</time>
      </trkpt>
      <trkpt lat="47.9049" lon="-3.49779">
        <ele>34</ele>
        <time>2017-01-14T18:49:00Z</time>
      </trkpt>
      <trkpt lat="47.90518" lon="-3.49775">
        <ele>34</ele>
        <time>2017-01-14T18:51:00Z</time>
      </trkpt>
      <trkpt lat="47.90492" lon="-3.49779">
        <ele>34</ele>
        <time>2017-01-14T18:53:00Z</time>
      </trkpt>
      <trkpt lat="47.90493" lon="-3.49796">
        <ele>36</ele>
        <time>2017-01-14T18:55:00Z</time>
      </trkpt>
      <trkpt lat="47.90492" lon="-3.49779">
        <ele>34</ele>
        <time>2017-01-14T18:57:00Z</time>
      </trkpt>
      <trkpt lat="47.90518" lon="-3.49775">
        <ele>34</ele>
        <time>2017-01-14T18:59:00Z</time>
      </trkpt>
      <trkpt lat="47.9053" lon="-3.49775">
        <ele>34</ele>
        <time>2017-01-14T19:01:00Z</time>
      </trkpt>
      <trkpt lat="47.90545" lon="-3.49788">
        <ele>36</ele>
        <time>2017-01-14T19:03:00Z</time>
      </trkpt>
      <trkpt lat="47.90558" lon="-3.49792">
        <ele>37</ele>
        <time>2017-01-14T19:05:00Z</time>
      </trkpt>
      <trkpt lat="47.90571" lon="-3.49799">
        <ele>38</ele>
        <time>2017-01-14T19:07:00Z</time>
      </trkpt>
      <trkpt lat="47.90566" lon="-3.49796">
        <ele>37</ele>
        <time>2017-01-14T19:09:00Z</time>
      </trkpt>
      <trkpt lat="47.90571" lon="-3.49799">
        <ele>38</ele>
        <time>2017-01-14T19:11:00Z</time>
      </trkpt>
      <trkpt lat="47.90573" lon="-3.49803">
        <ele>38</ele>
        <time>2017-01-14T19:13:00Z</time>
      </trkpt>
      <trkpt lat="47.90582" lon="-3.49818">
        <ele>40</ele>
        <time>2017-01-14T19:15:00Z</time>
      </trkpt>
      <trkpt lat="47.90586" lon="-3.49824">
        <ele>40</ele>
        <time>2017-01-14T19:17:00Z</time>
      </trkpt>
      <trkpt lat="47.90593" lon="-3.49835">
        <ele>42</ele>
        <time>2017-01-14T19:19:00Z</time>
      </trkpt>
      <trkpt lat="47.90614" lon="-3.49874">
        <ele>46</ele>
        <time>2017-01-14T19:21:00Z</time>
      </trkpt>
      <trkpt lat="47.90642" lon="-3.49936">
        <ele>48</ele>
        <time>2017-01-14T19:23:00Z</time>
      </trkpt>
      <trkpt lat="47.90663" lon="-3.49996">
        <ele>48</ele>
        <time>2017-01-14T19:25:00Z</time>
      </trkpt>
      <trkpt lat="47.9067" lon="-3.50015">
        <ele>48</ele>
        <time>2017-01-14T19:27:00Z</time>
      </trkpt>
      <trkpt lat="47.90679" lon="-3.50052">
        <ele>51</ele>
        <time>2017-01-14T19:29:00Z</time>
      </trkpt>
      <trkpt lat="47.90685" lon="-3.50065">
        <ele>51</ele>
        <time>2017-01-14T19:31:00Z</time>
      </trkpt>
      <trkpt lat="47.90691" lon="-3.50058">
        <ele>50</ele>
        <time>2017-01-14T19:33:00Z</time>
      </trkpt>
      <trkpt lat="47.90685" lon="-3.50065">
        <ele>51</ele>
        <time>2017-01-14T19:35:00Z</time>
      </trkpt>
      <trkpt lat="47.90706" lon="-3.50101">
        <ele>50</ele>
        <time>2017-01-14T19:37:00Z</time>
      </trkpt>
      <trkpt lat="47.90715" lon="-3.50114">
        <ele>49</ele>
        <time>2017-01-14T19:39:00Z</time>
      </trkpt>
      <trkpt lat="47.90726" lon="-3.50129">
        <ele>47</ele>
        <time>2017-01-14T19:41:00Z</time>
      </trkpt>
      <trkpt lat="47.90747" lon="-3.50153">
        <ele>43</ele>
        <time>2017-01-14T19:43:00Z</time>
      </trkpt>
      <trkpt lat="47.90749" lon="-3.50166">
        <ele>43</ele>
        <time>2017-01-14T19:45:00Z</time>
      </trkpt>
      <trkpt lat="47.90743" lon="-3.50168">
        <ele>45</ele>
        <time>2017-01-14T19:47:00Z</time>
      </trkpt>
      <trkpt lat="47.90749" lon="-3.50166">
        <ele>43</ele>
        <time>2017-01-14T19:49:00Z</time>
      </trkpt>
      <trkpt lat="47.90754" lon="-3.50183">
        <ele>44</ele>
        <time>2017-01-14T19:51:00Z</time>
      </trkpt>
      <trkpt lat="47.90758" lon="-3.50196">
        <ele>45</ele>
        <time>2017-01-14T19:53:00Z</time>
      </trkpt>
      <trkpt lat="47.90762" lon="-3.50222">
        <ele>48</ele>
        <time>2017-01-14T19:55:00Z</time>
      </trkpt>
      <trkpt lat="47.90769" lon="-3.5022">
        <ele>47</ele>
        <time>2017-01-14T19:57:00Z</time>
      </trkpt>
      <trkpt lat="47.90762" lon="-3.50222">
        <ele>48</ele>
        <time>2017-01-14T19:59:00Z</time>
      </trkpt>
      <trkpt lat="47.90766" lon="-3.50254">
        <ele>50</ele>
        <time>2017-01-14T20:01:00Z</time>
      </trkpt>
      <trkpt lat="47.90784" lon="-3.50256">
        <ele>51</ele>
        <time>2017-01-14T20:03:00Z</time>
      </trkpt>
      <trkpt lat="47.90773" lon="-3.50254">
        <ele>50</ele>
        <time>2017-01-14T20:05:00Z</time>
      </trkpt>
      <trkpt lat="47.90784" lon="-3.50256">
        <ele>51</ele>
        <time>2017-01-14T20:07:00Z</time>
      </trkpt>
      <trkpt lat="47.90792" lon="-3.50232">
        <ele>48</ele>
        <time>2017-01-14T20:09:00Z</time>
      </trkpt>
      <trkpt lat="47.90801" lon="-3.50232">
        <ele>48</ele>
        <time>2017-01-14T20:11:00Z</time>
      </trkpt>
      <trkpt lat="47.90829" lon="-3.50241">
        <ele>49</ele>
        <time>2017-01-14T20:13:00Z</time>
      </trkpt>
      <trkpt lat="47.9085" lon="-3.50256">
        <ele>50</ele>
        <time>2017-01-14T20:15:00Z</time>
      </trkpt>
      <trkpt lat="47.90861" lon="-3.50281">
        <ele>51</ele>
        <time>2017-01-14T20:17:00Z</time>
      </trkpt>
      <trkpt lat="47.90865" lon="-3.50329">
        <ele>53</ele>
        <time>2017-01-14T20:19:00Z</time>
      </trkpt>
      <trkpt lat="47.90876" lon="-3.50316">
        <ele>51</ele>
        <time>2017-01-14T20:21:00Z</time>
      </trkpt>
      <trkpt lat="47.90908" lon="-3.5035">
        <ele>50</ele>
        <time>2017-01-14T20:23:00Z</time>
      </trkpt>
      <trkpt lat="47.90936" lon="-3.50402">
        <ele>51</ele>
        <time>2017-01-14T20:25:00Z</time>
      </trkpt>
      <trkpt lat="47.9094" lon="-3.50432">
        <ele>53</ele>
        <time>2017-01-14T20:27:00Z</time>
      </trkpt>
      <trkpt lat="47.90966" lon="-3.5047">
        <ele>52</ele>
        <time>2017-01-14T20:29:00Z</time>
      </trkpt>
      <trkpt lat="47.9099" lon="-3.50515">
        <ele>50</ele>
        <time>2017-01-14T20:31:00Z</time>
      </trkpt>
      <trkpt lat="47.90998" lon="-3.50541">
        <ele>52</ele>
        <time>2017-01-14T20:33:00Z</time>
      </trkpt>
      <trkpt lat="47.91011" lon="-3.50573">
        <ele>53</ele>
        <time>2017-01-14T20:35:00Z</time>
      </trkpt>
      <trkpt lat="47.9102" lon="-3.50608">
        <ele>55</ele>
        <time>2017-01-14T20:37:00Z</time>
      </trkpt>
      <trkpt lat="47.91028" lon="-3.5064">
        <ele>56</ele>
        <time>2017-01-14T20:39:00Z</time>
      </trkpt>
      <trkpt lat="47.91037" lon="-3.50642">
        <ele>54</ele>
        <time>2017-01-14T20:41:00Z</time>
      </trkpt>
      <trkpt lat="47.91033" lon="-3.50623">
        <ele>53</ele>
        <time>2017-01-14T20:43:00Z</time>
      </trkpt>
      <trkpt lat="47.91035" lon="-3.50605">
        <ele>52</ele>
        <time>2017-01-14T20:45:00Z</time>
      </trkpt>
      <trkpt lat="47.91039" lon="-3.50582">
        <ele>49</ele>
        <time>2017-01-14T20:47:00Z</time>
      </trkpt>
      <trkpt lat="47.9105" lon="-3.50558">
        <ele>47</ele>
        <time>2017-01-14T20:49:00Z</time>
      </trkpt>
      <trkpt lat="47.91052" lon="-3.50543">
        <ele>47</ele>
        <time>2017-01-14T20:51:00Z</time>
      </trkpt>
      <trkpt lat="47.91052" lon="-3.50526">
        <ele>47</ele>
        <time>2017-01-14T20:53:00Z</time>
      </trkpt>
      <trkpt lat="47.91052" lon="-3.50531">
        <ele>47</ele>
        <time>2017-01-14T20:55:00Z</time>
      </trkpt>
      <trkpt lat="47.91052" lon="-3.50526">
        <ele>47</ele>
        <time>2017-01-14T20:57:00Z</time>
      </trkpt>
      <trkpt lat="47.91045" lon="-3.5049">
        <ele>47</ele>
        <time>2017-01-14T20:59:00Z</time>
      </trkpt>
      <trkpt lat="47.91013" lon="-3.5032">
        <ele>55</ele>
        <time>2017-01-14T21:01:00Z</time>
      </trkpt>
      <trkpt lat="47.91011" lon="-3.50299">
        <ele>56</ele>
        <time>2017-01-14T21:03:00Z</time>
      </trkpt>
      <trkpt lat="47.91009" lon="-3.50271">
        <ele>57</ele>
        <time>2017-01-14T21:05:00Z</time>
      </trkpt>
      <trkpt lat="47.91018" lon="-3.50202">
        <ele>60</ele>
        <time>2017-01-14T21:07:00Z</time>
      </trkpt>
      <trkpt lat="47.91022" lon="-3.5017">
        <ele>62</ele>
        <time>2017-01-14T21:09:00Z</time>
      </trkpt>
      <trkpt lat="47.91039" lon="-3.50097">
        <ele>68</ele>
        <time>2017-01-14T21:11:00Z</time>
      </trkpt>
      <trkpt lat="47.91045" lon="-3.50078">
        <ele>70</ele>
        <time>2017-01-14T21:13:00Z</time>
      </trkpt>
      <trkpt lat="47.91052" lon="-3.50043">
        <ele>72</ele>
        <time>2017-01-14T21:15:00Z</time>
      </trkpt>
      <trkpt lat="47.91065" lon="-3.50009">
        <ele>74</ele>
        <time>2017-01-14T21:17:00Z</time>
      </trkpt>
      <trkpt lat="47.9109" lon="-3.4991">
        <ele>79</ele>
        <time>2017-01-14T21:19:00Z</time>
      </trkpt>
      <trkpt lat="47.91106" lon="-3.49863">
        <ele>81</ele>
        <time>2017-01-14T21:21:00Z</time>
      </trkpt>
      <trkpt lat="47.9111" lon="-3.49846">
        <ele>81</ele>
        <time>2017-01-14T21:23:00Z</time>
      </trkpt>
      <trkpt lat="47.91114" lon="-3.49824">
        <ele>82</ele>
        <time>2017-01-14T21:25:00Z</time>
      </trkpt>
      <trkpt lat="47.91118" lon="-3.49799">
        <ele>83</ele>
        <time>2017-01-14T21:27:00Z</time>
      </trkpt>
      <trkpt lat="47.91118" lon="-3.4976">
        <ele>85</ele>
        <time>2017-01-14T21:29:00Z</time>
      </trkpt>
      <trkpt lat="47.91129" lon="-3.49762">
        <ele>85</ele>
        <time>2017-01-14T21:31:00Z</time>
      </trkpt>
      <trkpt lat="47.91151" lon="-3.49771">
        <ele>86</ele>
        <time>2017-01-14T21:33:00Z</time>
      </trkpt>
      <trkpt lat="47.91181" lon="-3.49786">
        <ele>86</ele>
        <time>2017-01-14T21:35:00Z</time>
      </trkpt>
      <trkpt lat="47.91211" lon="-3.49799">
        <ele>85</ele>
        <time>2017-01-14T21:37:00Z</time>
      </trkpt>
      <trkpt lat="47.91247" lon="-3.49816">
        <ele>84</ele>
        <time>2017-01-14T21:39:00Z</time>
      </trkpt>
      <trkpt lat="47.91292" lon="-3.49835">
        <ele>84</ele>
        <time>2017-01-14T21:41:00Z</time>
      </trkpt>
      <trkpt lat="47.91292" lon="-3.49816">
        <ele>84</ele>
        <time>2017-01-14T21:43:00Z</time>
      </trkpt>
      <trkpt lat="47.91294" lon="-3.49771">
        <ele>85</ele>
        <time>2017-01-14T21:45:00Z</time>
      </trkpt>
      <trkpt lat="47.91294" lon="-3.49745">
        <ele>85</ele>
        <time>2017-01-14T21:47:00Z</time>
      </trkpt>
      <trkpt lat="47.91296" lon="-3.49724">
        <ele>85</ele>
        <time>2017-01-14T21:49:00Z</time>
      </trkpt>
      <trkpt lat="47.91301" lon="-3.49706">
        <ele>84</ele>
        <time>2017-01-14T21:51:00Z</time>
      </trkpt>
      <trkpt lat="47.91301" lon="-3.49685">
        <ele>84</ele>
        <time>2017-01-14T21:53:00Z</time>
      </trkpt>
      <trkpt lat="47.91303" lon="-3.49661">
        <ele>84</ele>
        <time>2017-01-14T21:55:00Z</time>
      </trkpt>
      <trkpt lat="47.91301" lon="-3.49642">
        <ele>83</ele>
        <time>2017-01-14T21:57:00Z</time>
      </trkpt>
      <trkpt lat="47.91301" lon="-3.49464">
        <ele>78</ele>
        <time>2017-01-14T21:59:00Z</time>
      </trkpt>
      <trkpt lat="47.91295" lon="-3.49365">
        <ele>75</ele>
        <time>2017-01-14T22:01:00Z</time>
      </trkpt>
      <trkpt lat="47.91296" lon="-3.49393">
        <ele>76</ele>
        <time>2017-01-14T22:03:00Z</time>
      </trkpt>
      <trkpt lat="47.91294" lon="-3.49357">
        <ele>75</ele>
        <time>2017-01-14T22:05:00Z</time>
      </trkpt>
      <trkpt lat="47.91294" lon="-3.49256">
        <ele>75</ele>
        <time>2017-01-14T22:07:00Z</time>
      </trkpt>
      <trkpt lat="47.91292" lon="-3.49234">
        <ele>75</ele>
        <time>2017-01-14T22:09:00Z</time>
      </trkpt>
      <trkpt lat="47.91294" lon="-3.49211">
        <ele>75</ele>
        <time>2017-01-14T22:11:00Z</time>
      </trkpt>
      <trkpt lat="47.91296" lon="-3.49192">
        <ele>75</ele>
        <time>2017-01-14T22:13:00Z</time>
      </trkpt>
      <trkpt lat="47.91294" lon="-3.49211">
        <ele>75</ele>
        <time>2017-01-14T22:15:00Z</time>
      </trkpt>
      <trkpt lat="47.91296" lon="-3.49191">
        <ele>75</ele>
        <time>2017-01-14T22:17:00Z</time>
      </trkpt>
      <trkpt lat="47.91299" lon="-3.49187">
        <ele>75</ele>
        <time>2017-01-14T22:19:00Z</time>
      </trkpt>
      <trkpt lat="47.91305" lon="-3.49176">
        <ele>76</ele>
        <time>2017-01-14T22:21:00Z</time>
      </trkpt>
      <trkpt lat="47.91316" lon="-3.49168">
        <ele>76</ele>
        <time>2017-01-14T22:23:00Z</time>
      </trkpt>
      <trkpt lat="47.91324" lon="-3.49159">
        <ele>76</ele>
        <time>2017-01-14T22:25:00Z</time>
      </trkpt>
      <trkpt lat="47.91344" lon="-3.49149">
        <ele>76</ele>
        <time>2017-01-14T22:27:00Z</time>
      </trkpt>
      <trkpt lat="47.91365" lon="-3.49138">
        <ele>77</ele>
        <time>2017-01-14T22:29:00Z</time>
      </trkpt>
      <trkpt lat="47.91372" lon="-3.49136">
        <ele>77</ele>
        <time>2017-01-14T22:31:00Z</time>
      </trkpt>
      <trkpt lat="47.91376" lon="-3.49116">
        <ele>77</ele>
        <time>2017-01-14T22:33:00Z</time>
      </trkpt>
      <trkpt lat="47.91393" lon="-3.49033">
        <ele>80</ele>
        <time>2017-01-14T22:35:00Z</time>
      </trkpt>
      <trkpt lat="47.91408" lon="-3.48958">
        <ele>82</ele>
        <time>2017-01-14T22:37:00Z</time>
      </trkpt>
      <trkpt lat="47.91432" lon="-3.48827">
        <ele>84</ele>
        <time>2017-01-14T22:39:00Z</time>
      </trkpt>
      <trkpt lat="47.91408" lon="-3.48958">
        <ele>82</ele>
        <time>2017-01-14T22:41:00Z</time>
      </trkpt>
      <trkpt lat="47.91432" lon="-3.48827">
        <ele>84</ele>
        <time>2017-01-14T22:43:00Z</time>
      </trkpt>
      <trkpt lat="47.9144" lon="-3.48788">
        <ele>84</ele>
        <time>2017-01-14T22:45:00Z</time>
      </trkpt>
      <trkpt lat="47.91449" lon="-3.48758">
        <ele>85</ele>
        <time>2017-01-14T22:47:00Z</time>
      </trkpt>
      <trkpt lat="47.91457" lon="-3.48739">
        <ele>85</ele>
        <time>2017-01-14T22:49:00Z</time>
      </trkpt>
      <trkpt lat="47.91464" lon="-3.48732">
        <ele>85</ele>
        <time>2017-01-14T22:51:00Z</time>
      </trkpt>
      <trkpt lat="47.91472" lon="-3.4873">
        <ele>85</ele>
        <time>2017-01-14T22:53:00Z</time>
      </trkpt>
      <trkpt lat="47.91485" lon="-3.48745">
        <ele>85</ele>
        <time>2017-01-14T22:55:00Z</time>
      </trkpt>
      <trkpt lat="47.91513" lon="-3.48775">
        <ele>84</ele>
        <time>2017-01-14T22:57:00Z</time>
      </trkpt>
      <trkpt lat="47.9153" lon="-3.48797">
        <ele>83</ele>
        <time>2017-01-14T22:59:00Z</time>
      </trkpt>
      <trkpt lat="47.91541" lon="-3.48809">
        <ele>82</ele>
        <time>2017-01-14T23:01:00Z</time>
      </trkpt>
      <trkpt lat="47.91558" lon="-3.48829">
        <ele>81</ele>
        <time>2017-01-14T23:03:00Z</time>
      </trkpt>
      <trkpt lat="47.91567" lon="-3.48837">
        <ele>81</ele>
        <time>2017-01-14T23:05:00Z</time>
      </trkpt>
      <trkpt lat="47.91575" lon="-3.48848">
        <ele>80</ele>
        <time>2017-01-14T23:07:00Z</time>
      </trkpt>
      <trkpt lat="47.91601" lon="-3.48863">
        <ele>80</ele>
        <time>2017-01-14T23:09:00Z</time>
      </trkpt>
      <trkpt lat="47.91625" lon="-3.48872">
        <ele>80</ele>
        <time>2017-01-14T23:11:00Z</time>
      </trkpt>
      <trkpt lat="47.91642" lon="-3.48876">
        <ele>80</ele>
        <time>2017-01-14T23:13:00Z</time>
      </trkpt>
      <trkpt lat="47.91653" lon="-3.48874">
        <ele>80</ele>
        <time>2017-01-14T23:15:00Z</time>
      </trkpt>
      <trkpt lat="47.91661" lon="-3.48874">
        <ele>80</ele>
        <time>2017-01-14T23:17:00Z</time>
      </trkpt>
      <trkpt lat="47.91683" lon="-3.4887">
        <ele>80</ele>
        <time>2017-01-14T23:19:00Z</time>
      </trkpt>
      <trkpt lat="47.917" lon="-3.4887">
        <ele>81</ele>
        <time>2017-01-14T23:21:00Z</time>
      </trkpt>
      <trkpt lat="47.91708" lon="-3.48867">
        <ele>81</ele>
        <time>2017-01-14T23:23:00Z</time>
      </trkpt>
      <trkpt lat="47.91773" lon="-3.48867">
        <ele>83</ele>
        <time>2017-01-14T23:25:00Z</time>
      </trkpt>
      <trkpt lat="47.91788" lon="-3.48876">
        <ele>83</ele>
        <time>2017-01-14T23:27:00Z</time>
      </trkpt>
      <trkpt lat="47.91803" lon="-3.48889">
        <ele>84</ele>
        <time>2017-01-14T23:29:00Z</time>
      </trkpt>
      <trkpt lat="47.91816" lon="-3.48882">
        <ele>84</ele>
        <time>2017-01-14T23:31:00Z</time>
      </trkpt>
      <trkpt lat="47.91833" lon="-3.48865">
        <ele>85</ele>
        <time>2017-01-14T23:33:00Z</time>
      </trkpt>
      <trkpt lat="47.91844" lon="-3.48857">
        <ele>85</ele>
        <time>2017-01-14T23:35:00Z</time>
      </trkpt>
      <trkpt lat="47.91867" lon="-3.48848">
        <ele>85</ele>
        <time>2017-01-14T23:37:00Z</time>
      </trkpt>
      <trkpt lat="47.91872" lon="-3.48846">
        <ele>85</ele>
        <time>2017-01-14T23:39:00Z</time>
      </trkpt>
      <trkpt lat="47.91884" lon="-3.48841">
        <ele>85</ele>
        <time>2017-01-14T23:41:00Z</time>
      </trkpt>
      <trkpt lat="47.91872" lon="-3.48846">
        <ele>85</ele>
        <time>2017-01-14T23:43:00Z</time>
      </trkpt>
      <trkpt lat="47.91887" lon="-3.4884">
        <ele>84</ele>
        <time>2017-01-14T23:45:00Z</time>
      </trkpt>
      <trkpt lat="47.91899" lon="-3.48837">
        <ele>84</ele>
        <time>2017-01-14T23:47:00Z</time>
      </trkpt>
      <trkpt lat="47.91914" lon="-3.48833">
        <ele>84</ele>
        <time>2017-01-14T23:49:00Z</time>
      </trkpt>
      <trkpt lat="47.91936" lon="-3.48831">
        <ele>85</ele>
        <time>2017-01-14T23:51:00Z</time>
      </trkpt>
      <trkpt lat="47.91951" lon="-3.48833">
        <ele>85</ele>
        <time>2017-01-14T23:53:00Z</time>
      </trkpt>
      <trkpt lat="47.91977" lon="-3.48833">
        <ele>85</ele>
        <time>2017-01-14T23:55:00Z</time>
      </trkpt>
      <trkpt lat="47.91987" lon="-3.48831">
        <ele>86</ele>
        <time>2017-01-14T23:57:00Z</time>
      </trkpt>
      <trkpt lat="47.92002" lon="-3.48829">
        <ele>86</ele>
        <time>2017-01-14T23:59:00Z</time>
      </trkpt>
      <trkpt lat="47.92028" lon="-3.48829">
        <ele>87</ele>
        <time>2017-01-15T00:01:00Z</time>
      </trkpt>
      <trkpt lat="47.92056" lon="-3.48833">
        <ele>88</ele>
        <time>2017-01-15T00:03:00Z</time>
      </trkpt>
      <trkpt lat="47.92078" lon="-3.48837">
        <ele>89</ele>
        <time>2017-01-15T00:05:00Z</time>
      </trkpt>
      <trkpt lat="47.92088" lon="-3.48842">
        <ele>89</ele>
        <time>2017-01-15T00:07:00Z</time>
      </trkpt>
      <trkpt lat="47.92118" lon="-3.4885">
        <ele>90</ele>
        <time>2017-01-15T00:09:00Z</time>
      </trkpt>
      <trkpt lat="47.92131" lon="-3.48852">
        <ele>91</ele>
        <time>2017-01-15T00:11:00Z</time>
      </trkpt>
      <trkpt lat="47.92148" lon="-3.48857">
        <ele>92</ele>
        <time>2017-01-15T00:13:00Z</time>
      </trkpt>
      <trkpt lat="47.92176" lon="-3.48867">
        <ele>92</ele>
        <time>2017-01-15T00:15:00Z</time>
      </trkpt>
      <trkpt lat="47.92191" lon="-3.48872">
        <ele>92</ele>
        <time>2017-01-15T00:17:00Z</time>
      </trkpt>
      <trkpt lat="47.92202" lon="-3.48874">
        <ele>92</ele>
        <time>2017-01-15T00:19:00Z</time>
      </trkpt>
      <trkpt lat="47.92206" lon="-3.4888">
        <ele>92</ele>
        <time>2017-01-15T00:21:00Z</time>
      </trkpt>
      <trkpt lat="47.92215" lon="-3.48891">
        <ele>92</ele>
        <time>2017-01-15T00:23:00Z</time>
      </trkpt>
      <trkpt lat="47.92223" lon="-3.489">
        <ele>93</ele>
        <time>2017-01-15T00:25:00Z</time>
      </trkpt>
      <trkpt lat="47.92279" lon="-3.48915">
        <ele>90</ele>
        <time>2017-01-15T00:27:00Z</time>
      </trkpt>
      <trkpt lat="47.92309" lon="-3.48923">
        <ele>87</ele>
        <time>2017-01-15T00:29:00Z</time>
      </trkpt>
      <trkpt lat="47.92333" lon="-3.48932">
        <ele>84</ele>
        <time>2017-01-15T00:31:00Z</time>
      </trkpt>
      <trkpt lat="47.92356" lon="-3.48934">
        <ele>81</ele>
        <time>2017-01-15T00:33:00Z</time>
      </trkpt>
      <trkpt lat="47.92364" lon="-3.48934">
        <ele>80</ele>
        <time>2017-01-15T00:35:00Z</time>
      </trkpt>
      <trkpt lat="47.92356" lon="-3.48934">
        <ele>81</ele>
        <time>2017-01-15T00:37:00Z</time>
      </trkpt>
      <trkpt lat="47.92387" lon="-3.48934">
        <ele>77</ele>
        <time>2017-01-15T00:39:00Z</time>
      </trkpt>
      <trkpt lat="47.92406" lon="-3.48932">
        <ele>74</ele>
        <time>2017-01-15T00:41:00Z</time>
      </trkpt>
      <trkpt lat="47.92421" lon="-3.48932">
        <ele>72</ele>
        <time>2017-01-15T00:43:00Z</time>
      </trkpt>
      <trkpt lat="47.92436" lon="-3.4893">
        <ele>72</ele>
        <time>2017-01-15T00:45:00Z</time>
      </trkpt>
      <trkpt lat="47.92453" lon="-3.48926">
        <ele>71</ele>
        <time>2017-01-15T00:47:00Z</time>
      </trkpt>
      <trkpt lat="47.92447" lon="-3.48927">
        <ele>71</ele>
        <time>2017-01-15T00:49:00Z</time>
      </trkpt>
      <trkpt lat="47.92455" lon="-3.48925">
        <ele>71</ele>
        <time>2017-01-15T00:51:00Z</time>
      </trkpt>
      <trkpt lat="47.92462" lon="-3.48921">
        <ele>70</ele>
        <time>2017-01-15T00:53:00Z</time>
      </trkpt>
      <trkpt lat="47.92475" lon="-3.4891">
        <ele>70</ele>
        <time>2017-01-15T00:55:00Z</time>
      </trkpt>
      <trkpt lat="47.9248" lon="-3.48906">
        <ele>69</ele>
        <time>2017-01-15T00:57:00Z</time>
      </trkpt>
      <trkpt lat="47.92482" lon="-3.48912">
        <ele>70</ele>
        <time>2017-01-15T00:59:00Z</time>
      </trkpt>
      <trkpt lat="47.9248" lon="-3.48906">
        <ele>69</ele>
        <time>2017-01-15T01:01:00Z</time>
      </trkpt>
      <trkpt lat="47.92475" lon="-3.4891">
        <ele>70</ele>
        <time>2017-01-15T01:03:00Z</time>
      </trkpt>
      <trkpt lat="47.92483" lon="-3.48904">
        <ele>69</ele>
        <time>2017-01-15T01:05:00Z</time>
      </trkpt>
      <trkpt lat="47.92492" lon="-3.489">
        <ele>69</ele>
        <time>2017-01-15T01:07:00Z</time>
      </trkpt>
      <trkpt lat="47.92498" lon="-3.48895">
        <ele>69</ele>
        <time>2017-01-15T01:09:00Z</time>
      </trkpt>
      <trkpt lat="47.92502" lon="-3.48889">
        <ele>69</ele>
        <time>2017-01-15T01:11:00Z</time>
      </trkpt>
      <trkpt lat="47.92505" lon="-3.48878">
        <ele>69</ele>
        <time>2017-01-15T01:13:00Z</time>
      </trkpt>
      <trkpt lat="47.92517" lon="-3.48848">
        <ele>69</ele>
        <time>2017-01-15T01:15:00Z</time>
      </trkpt>
      <trkpt lat="47.92522" lon="-3.48833">
        <ele>69</ele>
        <time>2017-01-15T01:17:00Z</time>
      </trkpt>
      <trkpt lat="47.9253" lon="-3.48807">
        <ele>69</ele>
        <time>2017-01-15T01:19:00Z</time>
      </trkpt>
      <trkpt lat="47.92541" lon="-3.48794">
        <ele>70</ele>
        <time>2017-01-15T01:21:00Z</time>
      </trkpt>
      <trkpt lat="47.9256" lon="-3.48782">
        <ele>71</ele>
        <time>2017-01-15T01:23:00Z</time>
      </trkpt>
      <trkpt lat="47.92569" lon="-3.48777">
        <ele>71</ele>
        <time>2017-01-15T01:25:00Z</time>
      </trkpt>
      <trkpt lat="47.9258" lon="-3.48775">
        <ele>72</ele>
        <time>2017-01-15T01:27:00Z</time>
      </trkpt>
      <trkpt lat="47.92588" lon="-3.48775">
        <ele>72</ele>
        <time>2017-01-15T01:29:00Z</time>
      </trkpt>
      <trkpt lat="47.92599" lon="-3.48773">
        <ele>72</ele>
        <time>2017-01-15T01:31:00Z</time>
      </trkpt>
      <trkpt lat="47.92608" lon="-3.48773">
        <ele>73</ele>
        <time>2017-01-15T01:33:00Z</time>
      </trkpt>
      <trkpt lat="47.92625" lon="-3.48769">
        <ele>73</ele>
        <time>2017-01-15T01:35:00Z</time>
      </trkpt>
      <trkpt lat="47.92633" lon="-3.48769">
        <ele>73</ele>
        <time>2017-01-15T01:37:00Z</time>
      </trkpt>
      <trkpt lat="47.9264" lon="-3.48767">
        <ele>74</ele>
        <time>2017-01-15T01:39:00Z</time>
      </trkpt>
      <trkpt lat="47.92644" lon="-3.48767">
        <ele>74</ele>
        <time>2017-01-15T01:41:00Z</time>
      </trkpt>
      <trkpt lat="47.9265" lon="-3.48726">
        <ele>73</ele>
        <time>2017-01-15T01:43:00Z</time>
      </trkpt>
      <trkpt lat="47.92653" lon="-3.48711">
        <ele>73</ele>
        <time>2017-01-15T01:45:00Z</time>
      </trkpt>
      <trkpt lat="47.92653" lon="-3.487">
        <ele>73</ele>
        <time>2017-01-15T01:47:00Z</time>
      </trkpt>
      <trkpt lat="47.9265" lon="-3.48691">
        <ele>73</ele>
        <time>2017-01-15T01:49:00Z</time>
      </trkpt>
      <trkpt lat="47.92665" lon="-3.48681">
        <ele>73</ele>
        <time>2017-01-15T01:51:00Z</time>
      </trkpt>
      <trkpt lat="47.9265" lon="-3.48691">
        <ele>73</ele>
        <time>2017-01-15T01:53:00Z</time>
      </trkpt>
      <trkpt lat="47.92653" lon="-3.487">
        <ele>73</ele>
        <time>2017-01-15T01:55:00Z</time>
      </trkpt>
      <trkpt lat="47.92648" lon="-3.48685">
        <ele>73</ele>
        <time>2017-01-15T01:57:00Z</time>
      </trkpt>
      <trkpt lat="47.9264" lon="-3.48651">
        <ele>72</ele>
        <time>2017-01-15T01:59:00Z</time>
      </trkpt>
      <trkpt lat="47.92635" lon="-3.48629">
        <ele>72</ele>
        <time>2017-01-15T02:01:00Z</time>
      </trkpt>
      <trkpt lat="47.92631" lon="-3.48591">
        <ele>71</ele>
        <time>2017-01-15T02:03:00Z</time>
      </trkpt>
      <trkpt lat="47.92627" lon="-3.48569">
        <ele>71</ele>
        <time>2017-01-15T02:05:00Z</time>
      </trkpt>
      <trkpt lat="47.92612" lon="-3.48528">
        <ele>70</ele>
        <time>2017-01-15T02:07:00Z</time>
      </trkpt>
      <trkpt lat="47.92603" lon="-3.48503">
        <ele>70</ele>
        <time>2017-01-15T02:09:00Z</time>
      </trkpt>
      <trkpt lat="47.92601" lon="-3.48492">
        <ele>70</ele>
        <time>2017-01-15T02:11:00Z</time>
      </trkpt>
      <trkpt lat="47.92599" lon="-3.48477">
        <ele>70</ele>
        <time>2017-01-15T02:13:00Z</time>
      </trkpt>
      <trkpt lat="47.92598" lon="-3.48474">
        <ele>70</ele>
        <time>2017-01-15T02:15:00Z</time>
      </trkpt>
      <trkpt lat="47.92599" lon="-3.48477">
        <ele>70</ele>
        <time>2017-01-15T02:17:00Z</time>
      </trkpt>
      <trkpt lat="47.92599" lon="-3.48438">
        <ele>69</ele>
        <time>2017-01-15T02:19:00Z</time>
      </trkpt>
      <trkpt lat="47.92597" lon="-3.48428">
        <ele>69</ele>
        <time>2017-01-15T02:21:00Z</time>
      </trkpt>
      <trkpt lat="47.92588" lon="-3.48415">
        <ele>69</ele>
        <time>2017-01-15T02:23:00Z</time>
      </trkpt>
      <trkpt lat="47.92582" lon="-3.48402">
        <ele>69</ele>
        <time>2017-01-15T02:25:00Z</time>
      </trkpt>
      <trkpt lat="47.92578" lon="-3.48391">
        <ele>69</ele>
        <time>2017-01-15T02:27:00Z</time>
      </trkpt>
      <trkpt lat="47.92575" lon="-3.48378">
        <ele>69</ele>
        <time>2017-01-15T02:29:00Z</time>
      </trkpt>
      <trkpt lat="47.92571" lon="-3.48365">
        <ele>69</ele>
        <time>2017-01-15T02:31:00Z</time>
      </trkpt>
      <trkpt lat="47.92569" lon="-3.48346">
        <ele>69</ele>
        <time>2017-01-15T02:33:00Z</time>
      </trkpt>
      <trkpt lat="47.92566" lon="-3.4832">
        <ele>69</ele>
        <time>2017-01-15T02:35:00Z</time>
      </trkpt>
      <trkpt lat="47.92555" lon="-3.48323">
        <ele>68</ele>
        <time>2017-01-15T02:37:00Z</time>
      </trkpt>
      <trkpt lat="47.92566" lon="-3.4832">
        <ele>69</ele>
        <time>2017-01-15T02:39:00Z</time>
      </trkpt>
      <trkpt lat="47.92565" lon="-3.48312">
        <ele>69</ele>
        <time>2017-01-15T02:41:00Z</time>
      </trkpt>
      <trkpt lat="47.92565" lon="-3.48211">
        <ele>71</ele>
        <time>2017-01-15T02:43:00Z</time>
      </trkpt>
      <trkpt lat="47.92569" lon="-3.48189">
        <ele>71</ele>
        <time>2017-01-15T02:45:00Z</time>
      </trkpt>
      <trkpt lat="47.92573" lon="-3.48153">
        <ele>71</ele>
        <time>2017-01-15T02:47:00Z</time>
      </trkpt>
      <trkpt lat="47.9258" lon="-3.48089">
        <ele>70</ele>
        <time>2017-01-15T02:49:00Z</time>
      </trkpt>
      <trkpt lat="47.92584" lon="-3.48089">
        <ele>70</ele>
        <time>2017-01-15T02:51:00Z</time>
      </trkpt>
      <trkpt lat="47.92595" lon="-3.4808">
        <ele>69</ele>
        <time>2017-01-15T02:53:00Z</time>
      </trkpt>
      <trkpt lat="47.92605" lon="-3.48076">
        <ele>69</ele>
        <time>2017-01-15T02:55:00Z</time>
      </trkpt>
      <trkpt lat="47.92618" lon="-3.48099">
        <ele>69</ele>
        <time>2017-01-15T02:57:00Z</time>
      </trkpt>
      <trkpt lat="47.92631" lon="-3.48119">
        <ele>69</ele>
        <time>2017-01-15T02:59:00Z</time>
      </trkpt>
      <trkpt lat="47.92644" lon="-3.48125">
        <ele>68</ele>
        <time>2017-01-15T03:01:00Z</time>
      </trkpt>
      <trkpt lat="47.92648" lon="-3.48129">
        <ele>68</ele>
        <time>2017-01-15T03:03:00Z</time>
      </trkpt>
      <trkpt lat="47.92653" lon="-3.48121">
        <ele>68</ele>
        <time>2017-01-15T03:05:00Z</time>
      </trkpt>
      <trkpt lat="47.92651" lon="-3.4813">
        <ele>68</ele>
        <time>2017-01-15T03:07:00Z</time>
      </trkpt>
      <trkpt lat="47.9267" lon="-3.48138">
        <ele>68</ele>
        <time>2017-01-15T03:09:00Z</time>
      </trkpt>
      <trkpt lat="47.92738" lon="-3.48159">
        <ele>70</ele>
        <time>2017-01-15T03:11:00Z</time>
      </trkpt>
      <trkpt lat="47.92764" lon="-3.48168">
        <ele>71</ele>
        <time>2017-01-15T03:13:00Z</time>
      </trkpt>
      <trkpt lat="47.92794" lon="-3.48179">
        <ele>71</ele>
        <time>2017-01-15T03:15:00Z</time>
      </trkpt>
      <trkpt lat="47.92835" lon="-3.48191">
        <ele>72</ele>
        <time>2017-01-15T03:17:00Z</time>
      </trkpt>
      <trkpt lat="47.92921" lon="-3.48222">
        <ele>73</ele>
        <time>2017-01-15T03:19:00Z</time>
      </trkpt>
      <trkpt lat="47.92962" lon="-3.4823">
        <ele>74</ele>
        <time>2017-01-15T03:21:00Z</time>
      </trkpt>
      <trkpt lat="47.92994" lon="-3.48018">
        <ele>74</ele>
        <time>2017-01-15T03:23:00Z</time>
      </trkpt>
      <trkpt lat="47.92997" lon="-3.48">
        <ele>74</ele>
        <time>2017-01-15T03:25:00Z</time>
      </trkpt>
      <trkpt lat="47.92989" lon="-3.47997">
        <ele>73</ele>
        <time>2017-01-15T03:27:00Z</time>
      </trkpt>
      <trkpt lat="47.92997" lon="-3.48">
        <ele>74</ele>
        <time>2017-01-15T03:29:00Z</time>
      </trkpt>
      <trkpt lat="47.92998" lon="-3.47994">
        <ele>74</ele>
        <time>2017-01-15T03:31:00Z</time>
      </trkpt>
      <trkpt lat="47.93009" lon="-3.47958">
        <ele>74</ele>
        <time>2017-01-15T03:33:00Z</time>
      </trkpt>
      <trkpt lat="47.93013" lon="-3.47949">
        <ele>75</ele>
        <time>2017-01-15T03:35:00Z</time>
      </trkpt>
      <trkpt lat="47.93011" lon="-3.47943">
        <ele>74</ele>
        <time>2017-01-15T03:37:00Z</time>
      </trkpt>
      <trkpt lat="47.93009" lon="-3.47932">
        <ele>74</ele>
        <time>2017-01-15T03:39:00Z</time>
      </trkpt>
      <trkpt lat="47.93009" lon="-3.47921">
        <ele>74</ele>
        <time>2017-01-15T03:41:00Z</time>
      </trkpt>
      <trkpt lat="47.93011" lon="-3.47908">
        <ele>74</ele>
        <time>2017-01-15T03:43:00Z</time>
      </trkpt>
      <trkpt lat="47.9302" lon="-3.47878">
        <ele>74</ele>
        <time>2017-01-15T03:45:00Z</time>
      </trkpt>
      <trkpt lat="47.9303" lon="-3.47855">
        <ele>74</ele>
        <time>2017-01-15T03:47:00Z</time>
      </trkpt>
      <trkpt lat="47.93046" lon="-3.47809">
        <ele>73</ele>
        <time>2017-01-15T03:49:00Z</time>
      </trkpt>
      <trkpt lat="47.93057" lon="-3.47817">
        <ele>75</ele>
        <time>2017-01-15T03:51:00Z</time>
      </trkpt>
      <trkpt lat="47.93046" lon="-3.47809">
        <ele>73</ele>
        <time>2017-01-15T03:53:00Z</time>
      </trkpt>
      <trkpt lat="47.93054" lon="-3.47784">
        <ele>72</ele>
        <time>2017-01-15T03:55:00Z</time>
      </trkpt>
      <trkpt lat="47.93069" lon="-3.47752">
        <ele>70</ele>
        <time>2017-01-15T03:57:00Z</time>
      </trkpt>
      <trkpt lat="47.93075" lon="-3.47741">
        <ele>70</ele>
        <time>2017-01-15T03:59:00Z</time>
      </trkpt>
      <trkpt lat="47.9308" lon="-3.47734">
        <ele>70</ele>
        <time>2017-01-15T04:01:00Z</time>
      </trkpt>
      <trkpt lat="47.93088" lon="-3.47726">
        <ele>70</ele>
        <time>2017-01-15T04:03:00Z</time>
      </trkpt>
      <trkpt lat="47.93114" lon="-3.47711">
        <ele>72</ele>
        <time>2017-01-15T04:05:00Z</time>
      </trkpt>
      <trkpt lat="47.93095" lon="-3.47722">
        <ele>71</ele>
        <time>2017-01-15T04:07:00Z</time>
      </trkpt>
      <trkpt lat="47.93114" lon="-3.47711">
        <ele>72</ele>
        <time>2017-01-15T04:09:00Z</time>
      </trkpt>
      <trkpt lat="47.93118" lon="-3.47704">
        <ele>72</ele>
        <time>2017-01-15T04:11:00Z</time>
      </trkpt>
      <trkpt lat="47.93116" lon="-3.47708">
        <ele>72</ele>
        <time>2017-01-15T04:13:00Z</time>
      </trkpt>
      <trkpt lat="47.93123" lon="-3.47698">
        <ele>72</ele>
        <time>2017-01-15T04:15:00Z</time>
      </trkpt>
      <trkpt lat="47.93125" lon="-3.47685">
        <ele>71</ele>
        <time>2017-01-15T04:17:00Z</time>
      </trkpt>
      <trkpt lat="47.93125" lon="-3.47668">
        <ele>70</ele>
        <time>2017-01-15T04:19:00Z</time>
      </trkpt>
      <trkpt lat="47.93123" lon="-3.4766">
        <ele>70</ele>
        <time>2017-01-15T04:21:00Z</time>
      </trkpt>
      <trkpt lat="47.9311" lon="-3.47616">
        <ele>70</ele>
        <time>2017-01-15T04:23:00Z</time>
      </trkpt>
      <trkpt lat="47.93097" lon="-3.47582">
        <ele>71</ele>
        <time>2017-01-15T04:25:00Z</time>
      </trkpt>
      <trkpt lat="47.93086" lon="-3.47558">
        <ele>71</ele>
        <time>2017-01-15T04:27:00Z</time>
      </trkpt>
      <trkpt lat="47.93084" lon="-3.47554">
        <ele>71</ele>
        <time>2017-01-15T04:29:00Z</time>
      </trkpt>
      <trkpt lat="47.93077" lon="-3.47537">
        <ele>71</ele>
        <time>2017-01-15T04:31:00Z</time>
      </trkpt>
      <trkpt lat="47.93075" lon="-3.47528">
        <ele>71</ele>
        <time>2017-01-15T04:33:00Z</time>
      </trkpt>
      <trkpt lat="47.9307" lon="-3.47531">
        <ele>71</ele>
        <time>2017-01-15T04:35:00Z</time>
      </trkpt>
      <trkpt lat="47.93075" lon="-3.47528">
        <ele>71</ele>
        <time>2017-01-15T04:37:00Z</time>
      </trkpt>
      <trkpt lat="47.93073" lon="-3.4752">
        <ele>71</ele>
        <time>2017-01-15T04:39:00Z</time>
      </trkpt>
      <trkpt lat="47.93073" lon="-3.47468">
        <ele>73</ele>
        <time>2017-01-15T04:41:00Z</time>
      </trkpt>
      <trkpt lat="47.9308" lon="-3.47408">
        <ele>75</ele>
        <time>2017-01-15T04:43:00Z</time>
      </trkpt>
      <trkpt lat="47.93088" lon="-3.47376">
        <ele>76</ele>
        <time>2017-01-15T04:45:00Z</time>
      </trkpt>
      <trkpt lat="47.93099" lon="-3.47331">
        <ele>77</ele>
        <time>2017-01-15T04:47:00Z</time>
      </trkpt>
      <trkpt lat="47.93105" lon="-3.4729">
        <ele>77</ele>
        <time>2017-01-15T04:49:00Z</time>
      </trkpt>
      <trkpt lat="47.9311" lon="-3.47275">
        <ele>76</ele>
        <time>2017-01-15T04:51:00Z</time>
      </trkpt>
      <trkpt lat="47.93116" lon="-3.47226">
        <ele>75</ele>
        <time>2017-01-15T04:53:00Z</time>
      </trkpt>
      <trkpt lat="47.93123" lon="-3.47181">
        <ele>74</ele>
        <time>2017-01-15T04:55:00Z</time>
      </trkpt>
      <trkpt lat="47.93127" lon="-3.47136">
        <ele>73</ele>
        <time>2017-01-15T04:57:00Z</time>
      </trkpt>
      <trkpt lat="47.93129" lon="-3.47101">
        <ele>73</ele>
        <time>2017-01-15T04:59:00Z</time>
      </trkpt>
      <trkpt lat="47.93129" lon="-3.47078">
        <ele>72</ele>
        <time>2017-01-15T05:01:00Z</time>
      </trkpt>
      <trkpt lat="47.93131" lon="-3.46971">
        <ele>68</ele>
        <time>2017-01-15T05:03:00Z</time>
      </trkpt>
      <trkpt lat="47.93133" lon="-3.46915">
        <ele>66</ele>
        <time>2017-01-15T05:05:00Z</time>
      </trkpt>
      <trkpt lat="47.93129" lon="-3.46868">
        <ele>62</ele>
        <time>2017-01-15T05:07:00Z</time>
      </trkpt>
      <trkpt lat="47.93125" lon="-3.46844">
        <ele>60</ele>
        <time>2017-01-15T05:09:00Z</time>
      </trkpt>
      <trkpt lat="47.93114" lon="-3.46803">
        <ele>57</ele>
        <time>2017-01-15T05:11:00Z</time>
      </trkpt>
      <trkpt lat="47.93116" lon="-3.46812">
        <ele>58</ele>
        <time>2017-01-15T05:13:00Z</time>
      </trkpt>
      <trkpt lat="47.93113" lon="-3.46813">
        <ele>58</ele>
        <time>2017-01-15T05:15:00Z</time>
      </trkpt>
      <trkpt lat="47.93116" lon="-3.46812">
        <ele>58</ele>
        <time>2017-01-15T05:17:00Z</time>
      </trkpt>
      <trkpt lat="47.93114" lon="-3.46803">
        <ele>57</ele>
        <time>2017-01-15T05:19:00Z</time>
      </trkpt>
      <trkpt lat="47.93103" lon="-3.46758">
        <ele>54</ele>
        <time>2017-01-15T05:21:00Z</time>
      </trkpt>
      <trkpt lat="47.93101" lon="-3.46754">
        <ele>54</ele>
        <time>2017-01-15T05:23:00Z</time>
      </trkpt>
      <trkpt lat="47.93108" lon="-3.46754">
        <ele>54</ele>
        <time>2017-01-15T05:25:00Z</time>
      </trkpt>
      <trkpt lat="47.93114" lon="-3.4675">
        <ele>54</ele>
        <time>2017-01-15T05:27:00Z</time>
      </trkpt>
      <trkpt lat="47.9312" lon="-3.46739">
        <ele>54</ele>
        <time>2017-01-15T05:29:00Z</time>
      </trkpt>
      <trkpt lat="47.93125" lon="-3.46726">
        <ele>53</ele>
        <time>2017-01-15T05:31:00Z</time>
      </trkpt>
      <trkpt lat="47.93131" lon="-3.46698">
        <ele>52</ele>
        <time>2017-01-15T05:33:00Z</time>
      </trkpt>
      <trkpt lat="47.93135" lon="-3.46659">
        <ele>51</ele>
        <time>2017-01-15T05:35:00Z</time>
      </trkpt>
      <trkpt lat="47.93143" lon="-3.46603">
        <ele>50</ele>
        <time>2017-01-15T05:37:00Z</time>
      </trkpt>
      <trkpt lat="47.9315" lon="-3.46605">
        <ele>51</ele>
        <time>2017-01-15T05:39:00Z</time>
      </trkpt>
      <trkpt lat="47.93143" lon="-3.46603">
        <ele>50</ele>
        <time>2017-01-15T05:41:00Z</time>
      </trkpt>
      <trkpt lat="47.93135" lon="-3.46659">
        <ele>51</ele>
        <time>2017-01-15T05:43:00Z</time>
      </trkpt>
      <trkpt lat="47.93146" lon="-3.46584">
        <ele>50</ele>
        <time>2017-01-15T05:45:00Z</time>
      </trkpt>
      <trkpt lat="47.9315" lon="-3.46559">
        <ele>50</ele>
        <time>2017-01-15T05:47:00Z</time>
      </trkpt>
      <trkpt lat="47.93163" lon="-3.46524">
        <ele>50</ele>
        <time>2017-01-15T05:49:00Z</time>
      </trkpt>
      <trkpt lat="47.93174" lon="-3.46481">
        <ele>51</ele>
        <time>2017-01-15T05:51:00Z</time>
      </trkpt>
      <trkpt lat="47.9318" lon="-3.46453">
        <ele>51</ele>
        <time>2017-01-15T05:53:00Z</time>
      </trkpt>
      <trkpt lat="47.93189" lon="-3.46398">
        <ele>50</ele>
        <time>2017-01-15T05:55:00Z</time>
      </trkpt>
      <trkpt lat="47.93198" lon="-3.4637">
        <ele>51</ele>
        <time>2017-01-15T05:57:00Z</time>
      </trkpt>
      <trkpt lat="47.93202" lon="-3.46361">
        <ele>51</ele>
        <time>2017-01-15T05:59:00Z</time>
      </trkpt>
      <trkpt lat="47.93213" lon="-3.46353">
        <ele>52</ele>
        <time>2017-01-15T06:01:00Z</time>
      </trkpt>
      <trkpt lat="47.93217" lon="-3.4635">
        <ele>52</ele>
        <time>2017-01-15T06:03:00Z</time>
      </trkpt>
      <trkpt lat="47.93221" lon="-3.46342">
        <ele>53</ele>
        <time>2017-01-15T06:05:00Z</time>
      </trkpt>
      <trkpt lat="47.93221" lon="-3.46329">
        <ele>52</ele>
        <time>2017-01-15T06:07:00Z</time>
      </trkpt>
      <trkpt lat="47.93211" lon="-3.46297">
        <ele>50</ele>
        <time>2017-01-15T06:09:00Z</time>
      </trkpt>
      <trkpt lat="47.93211" lon="-3.46286">
        <ele>49</ele>
        <time>2017-01-15T06:11:00Z</time>
      </trkpt>
      <trkpt lat="47.93215" lon="-3.4626">
        <ele>49</ele>
        <time>2017-01-15T06:13:00Z</time>
      </trkpt>
      <trkpt lat="47.93218" lon="-3.4626">
        <ele>49</ele>
        <time>2017-01-15T06:15:00Z</time>
      </trkpt>
      <trkpt lat="47.93215" lon="-3.46258">
        <ele>49</ele>
        <time>2017-01-15T06:17:00Z</time>
      </trkpt>
      <trkpt lat="47.93219" lon="-3.46237">
        <ele>49</ele>
        <time>2017-01-15T06:19:00Z</time>
      </trkpt>
      <trkpt lat="47.93223" lon="-3.46226">
        <ele>49</ele>
        <time>2017-01-15T06:21:00Z</time>
      </trkpt>
      <trkpt lat="47.93238" lon="-3.46211">
        <ele>50</ele>
        <time>2017-01-15T06:23:00Z</time>
      </trkpt>
      <trkpt lat="47.93283" lon="-3.46173">
        <ele>52</ele>
        <time>2017-01-15T06:25:00Z</time>
      </trkpt>
      <trkpt lat="47.93272" lon="-3.46144">
        <ele>48</ele>
        <time>2017-01-15T06:27:00Z</time>
      </trkpt>
      <trkpt lat="47.93283" lon="-3.46173">
        <ele>52</ele>
        <time>2017-01-15T06:29:00Z</time>
      </trkpt>
      <trkpt lat="47.93296" lon="-3.46162">
        <ele>53</ele>
        <time>2017-01-15T06:31:00Z</time>
      </trkpt>
      <trkpt lat="47.93311" lon="-3.46151">
        <ele>53</ele>
        <time>2017-01-15T06:33:00Z</time>
      </trkpt>
      <trkpt lat="47.93322" lon="-3.46153">
        <ele>55</ele>
        <time>2017-01-15T06:35:00Z</time>
      </trkpt>
      <trkpt lat="47.93341" lon="-3.46159">
        <ele>58</ele>
        <time>2017-01-15T06:37:00Z</time>
      </trkpt>
      <trkpt lat="47.93361" lon="-3.46162">
        <ele>61</ele>
        <time>2017-01-15T06:39:00Z</time>
      </trkpt>
      <trkpt lat="47.93421" lon="-3.46164">
        <ele>69</ele>
        <time>2017-01-15T06:41:00Z</time>
      </trkpt>
      <trkpt lat="47.93453" lon="-3.46164">
        <ele>72</ele>
        <time>2017-01-15T06:43:00Z</time>
      </trkpt>
      <trkpt lat="47.93487" lon="-3.46162">
        <ele>75</ele>
        <time>2017-01-15T06:45:00Z</time>
      </trkpt>
      <trkpt lat="47.93517" lon="-3.46179">
        <ele>77</ele>
        <time>2017-01-15T06:47:00Z</time>
      </trkpt>
      <trkpt lat="47.93526" lon="-3.46187">
        <ele>78</ele>
        <time>2017-01-15T06:49:00Z</time>
      </trkpt>
      <trkpt lat="47.93535" lon="-3.462">
        <ele>79</ele>
        <time>2017-01-15T06:51:00Z</time>
      </trkpt>
      <trkpt lat="47.93545" lon="-3.46215">
        <ele>81</ele>
        <time>2017-01-15T06:53:00Z</time>
      </trkpt>
      <trkpt lat="47.9355" lon="-3.46239">
        <ele>85</ele>
        <time>2017-01-15T06:55:00Z</time>
      </trkpt>
      <trkpt lat="47.93584" lon="-3.4626">
        <ele>86</ele>
        <time>2017-01-15T06:57:00Z</time>
      </trkpt>
      <trkpt lat="47.93586" lon="-3.46256">
        <ele>85</ele>
        <time>2017-01-15T06:59:00Z</time>
      </trkpt>
      <trkpt lat="47.93625" lon="-3.46254">
        <ele>82</ele>
        <time>2017-01-15T07:01:00Z</time>
      </trkpt>
      <trkpt lat="47.93648" lon="-3.46247">
        <ele>78</ele>
        <time>2017-01-15T07:03:00Z</time>
      </trkpt>
      <trkpt lat="47.93702" lon="-3.46247">
        <ele>74</ele>
        <time>2017-01-15T07:05:00Z</time>
      </trkpt>
      <trkpt lat="47.93708" lon="-3.46251">
        <ele>75</ele>
        <time>2017-01-15T07:07:00Z</time>
      </trkpt>
      <trkpt lat="47.93702" lon="-3.46247">
        <ele>74</ele>
        <time>2017-01-15T07:09:00Z</time>
      </trkpt>
      <trkpt lat="47.93728" lon="-3.46262">
        <ele>76</ele>
        <time>2017-01-15T07:11:00Z</time>
      </trkpt>
      <trkpt lat="47.93749" lon="-3.46271">
        <ele>77</ele>
        <time>2017-01-15T07:13:00Z</time>
      </trkpt>
      <trkpt lat="47.93786" lon="-3.46295">
        <ele>75</ele>
        <time>2017-01-15T07:15:00Z</time>
      </trkpt>
      <trkpt lat="47.93818" lon="-3.46323">
        <ele>76</ele>
        <time>2017-01-15T07:17:00Z</time>
      </trkpt>
      <trkpt lat="47.93844" lon="-3.4635">
        <ele>77</ele>
        <time>2017-01-15T07:19:00Z</time>
      </trkpt>
      <trkpt lat="47.93859" lon="-3.46374">
        <ele>77</ele>
        <time>2017-01-15T07:21:00Z</time>
      </trkpt>
      <trkpt lat="47.93876" lon="-3.46413">
        <ele>81</ele>
        <time>2017-01-15T07:23:00Z</time>
      </trkpt>
      <trkpt lat="47.93889" lon="-3.46447">
        <ele>81</ele>
        <time>2017-01-15T07:25:00Z</time>
      </trkpt>
      <trkpt lat="47.93895" lon="-3.46468">
        <ele>82</ele>
        <time>2017-01-15T07:27:00Z</time>
      </trkpt>
      <trkpt lat="47.93889" lon="-3.46447">
        <ele>81</ele>
        <time>2017-01-15T07:29:00Z</time>
      </trkpt>
      <trkpt lat="47.93899" lon="-3.46483">
        <ele>83</ele>
        <time>2017-01-15T07:31:00Z</time>
      </trkpt>
      <trkpt lat="47.93908" lon="-3.46522">
        <ele>85</ele>
        <time>2017-01-15T07:33:00Z</time>
      </trkpt>
      <trkpt lat="47.9391" lon="-3.46561">
        <ele>87</ele>
        <time>2017-01-15T07:35:00Z</time>
      </trkpt>
      <trkpt lat="47.93916" lon="-3.46601">
        <ele>89</ele>
        <time>2017-01-15T07:37:00Z</time>
      </trkpt>
      <trkpt lat="47.93921" lon="-3.46657">
        <ele>90</ele>
        <time>2017-01-15T07:39:00Z</time>
      </trkpt>
      <trkpt lat="47.93916" lon="-3.46601">
        <ele>89</ele>
        <time>2017-01-15T07:41:00Z</time>
      </trkpt>
      <trkpt lat="47.93931" lon="-3.46775">
        <ele>90</ele>
        <time>2017-01-15T07:43:00Z</time>
      </trkpt>
      <trkpt lat="47.93931" lon="-3.46878">
        <ele>91</ele>
        <time>2017-01-15T07:45:00Z</time>
      </trkpt>
      <trkpt lat="47.93927" lon="-3.46964">
        <ele>93</ele>
        <time>2017-01-15T07:47:00Z</time>
      </trkpt>
      <trkpt lat="47.93927" lon="-3.46971">
        <ele>93</ele>
        <time>2017-01-15T07:49:00Z</time>
      </trkpt>
      <trkpt lat="47.93921" lon="-3.4699">
        <ele>94</ele>
        <time>2017-01-15T07:51:00Z</time>
      </trkpt>
      <trkpt lat="47.93916" lon="-3.46996">
        <ele>95</ele>
        <time>2017-01-15T07:53:00Z</time>
      </trkpt>
      <trkpt lat="47.93897" lon="-3.47011">
        <ele>95</ele>
        <time>2017-01-15T07:55:00Z</time>
      </trkpt>
      <trkpt lat="47.93889" lon="-3.47028">
        <ele>95</ele>
        <time>2017-01-15T07:57:00Z</time>
      </trkpt>
      <trkpt lat="47.93871" lon="-3.47026">
        <ele>96</ele>
        <time>2017-01-15T07:59:00Z</time>
      </trkpt>
      <trkpt lat="47.93888" lon="-3.47032">
        <ele>95</ele>
        <time>2017-01-15T08:01:00Z</time>
      </trkpt>
      <trkpt lat="47.93884" lon="-3.47056">
        <ele>93</ele>
        <time>2017-01-15T08:03:00Z</time>
      </trkpt>
      <trkpt lat="47.93878" lon="-3.47104">
        <ele>92</ele>
        <time>2017-01-15T08:05:00Z</time>
      </trkpt>
      <trkpt lat="47.93871" lon="-3.47136">
        <ele>93</ele>
        <time>2017-01-15T08:07:00Z</time>
      </trkpt>
      <trkpt lat="47.93871" lon="-3.47142">
        <ele>93</ele>
        <time>2017-01-15T08:09:00Z</time>
      </trkpt>
      <trkpt lat="47.93861" lon="-3.47149">
        <ele>93</ele>
        <time>2017-01-15T08:11:00Z</time>
      </trkpt>
      <trkpt lat="47.93854" lon="-3.47164">
        <ele>94</ele>
        <time>2017-01-15T08:13:00Z</time>
      </trkpt>
      <trkpt lat="47.93891" lon="-3.47157">
        <ele>93</ele>
        <time>2017-01-15T08:15:00Z</time>
      </trkpt>
      <trkpt lat="47.9391" lon="-3.47147">
        <ele>93</ele>
        <time>2017-01-15T08:17:00Z</time>
      </trkpt>
      <trkpt lat="47.93913" lon="-3.47142">
        <ele>92</ele>
        <time>2017-01-15T08:19:00Z</time>
      </trkpt>
      <trkpt lat="47.93919" lon="-3.47151">
        <ele>92</ele>
        <time>2017-01-15T08:21:00Z</time>
      </trkpt>
      <trkpt lat="47.93913" lon="-3.47142">
        <ele>92</ele>
        <time>2017-01-15T08:23:00Z</time>
      </trkpt>
      <trkpt lat="47.93916" lon="-3.47138">
        <ele>92</ele>
        <time>2017-01-15T08:25:00Z</time>
      </trkpt>
      <trkpt lat="47.93934" lon="-3.47112">
        <ele>89</ele>
        <time>2017-01-15T08:27:00Z</time>
      </trkpt>
      <trkpt lat="47.93938" lon="-3.47104">
        <ele>88</ele>
        <time>2017-01-15T08:29:00Z</time>
      </trkpt>
      <trkpt lat="47.93942" lon="-3.47091">
        <ele>87</ele>
        <time>2017-01-15T08:31:00Z</time>
      </trkpt>
      <trkpt lat="47.93964" lon="-3.47063">
        <ele>83</ele>
        <time>2017-01-15T08:33:00Z</time>
      </trkpt>
      <trkpt lat="47.93977" lon="-3.47052">
        <ele>81</ele>
        <time>2017-01-15T08:35:00Z</time>
      </trkpt>
      <trkpt lat="47.93981" lon="-3.47049">
        <ele>80</ele>
        <time>2017-01-15T08:37:00Z</time>
      </trkpt>
      <trkpt lat="47.93987" lon="-3.47069">
        <ele>79</ele>
        <time>2017-01-15T08:39:00Z</time>
      </trkpt>
      <trkpt lat="47.93981" lon="-3.47049">
        <ele>80</ele>
        <time>2017-01-15T08:41:00Z</time>
      </trkpt>
      <trkpt lat="47.94024" lon="-3.47033">
        <ele>70</ele>
        <time>2017-01-15T08:43:00Z</time>
      </trkpt>
      <trkpt lat="47.94028" lon="-3.47024">
        <ele>69</ele>
        <time>2017-01-15T08:45:00Z</time>
      </trkpt>
      <trkpt lat="47.94034" lon="-3.47016">
        <ele>67</ele>
        <time>2017-01-15T08:47:00Z</time>
      </trkpt>
      <trkpt lat="47.94039" lon="-3.46998">
        <ele>65</ele>
        <time>2017-01-15T08:49:00Z</time>
      </trkpt>
      <trkpt lat="47.94035" lon="-3.47012">
        <ele>66</ele>
        <time>2017-01-15T08:51:00Z</time>
      </trkpt>
      <trkpt lat="47.94039" lon="-3.46998">
        <ele>65</ele>
        <time>2017-01-15T08:53:00Z</time>
      </trkpt>
      <trkpt lat="47.94039" lon="-3.46971">
        <ele>64</ele>
        <time>2017-01-15T08:55:00Z</time>
      </trkpt>
      <trkpt lat="47.94028" lon="-3.4688">
        <ele>63</ele>
        <time>2017-01-15T08:57:00Z</time>
      </trkpt>
      <trkpt lat="47.94028" lon="-3.46863">
        <ele>62</ele>
        <time>2017-01-15T08:59:00Z</time>
      </trkpt>
      <trkpt lat="47.94028" lon="-3.46871">
        <ele>62</ele>
        <time>2017-01-15T09:01:00Z</time>
      </trkpt>
      <trkpt lat="47.94028" lon="-3.46863">
        <ele>62</ele>
        <time>2017-01-15T09:03:00Z</time>
      </trkpt>
      <trkpt lat="47.9403" lon="-3.46838">
        <ele>59</ele>
        <time>2017-01-15T09:05:00Z</time>
      </trkpt>
      <trkpt lat="47.94028" lon="-3.46831">
        <ele>60</ele>
        <time>2017-01-15T09:07:00Z</time>
      </trkpt>
      <trkpt lat="47.94037" lon="-3.46747">
        <ele>54</ele>
        <time>2017-01-15T09:09:00Z</time>
      </trkpt>
      <trkpt lat="47.94043" lon="-3.46711">
        <ele>51</ele>
        <time>2017-01-15T09:11:00Z</time>
      </trkpt>
      <trkpt lat="47.94045" lon="-3.46687">
        <ele>50</ele>
        <time>2017-01-15T09:13:00Z</time>
      </trkpt>
      <trkpt lat="47.94043" lon="-3.46672">
        <ele>51</ele>
        <time>2017-01-15T09:15:00Z</time>
      </trkpt>
      <trkpt lat="47.94034" lon="-3.46636">
        <ele>51</ele>
        <time>2017-01-15T09:17:00Z</time>
      </trkpt>
      <trkpt lat="47.94034" lon="-3.46629">
        <ele>51</ele>
        <time>2017-01-15T09:19:00Z</time>
      </trkpt>
      <trkpt lat="47.94039" lon="-3.46621">
        <ele>49</ele>
        <time>2017-01-15T09:21:00Z</time>
      </trkpt>
      <trkpt lat="47.94043" lon="-3.46617">
        <ele>48</ele>
        <time>2017-01-15T09:23:00Z</time>
      </trkpt>
      <trkpt lat="47.94052" lon="-3.46606">
        <ele>45</ele>
        <time>2017-01-15T09:25:00Z</time>
      </trkpt>
      <trkpt lat="47.94067" lon="-3.46589">
        <ele>40</ele>
        <time>2017-01-15T09:27:00Z</time>
      </trkpt>
      <trkpt lat="47.94071" lon="-3.4658">
        <ele>39</ele>
        <time>2017-01-15T09:29:00Z</time>
      </trkpt>
      <trkpt lat="47.94072" lon="-3.4657">
        <ele>39</ele>
        <time>2017-01-15T09:31:00Z</time>
      </trkpt>
      <trkpt lat="47.94067" lon="-3.4657">
        <ele>40</ele>
        <time>2017-01-15T09:33:00Z</time>
      </trkpt>
      <trkpt lat="47.94072" lon="-3.4657">
        <ele>39</ele>
        <time>2017-01-15T09:35:00Z</time>
      </trkpt>
      <trkpt lat="47.94073" lon="-3.46548">
        <ele>39</ele>
        <time>2017-01-15T09:37:00Z</time>
      </trkpt>
      <trkpt lat="47.94073" lon="-3.46535">
        <ele>39</ele>
        <time>2017-01-15T09:39:00Z</time>
      </trkpt>
      <trkpt lat="47.94071" lon="-3.4652">
        <ele>39</ele>
        <time>2017-01-15T09:41:00Z</time>
      </trkpt>
      <trkpt lat="47.94058" lon="-3.46471">
        <ele>41</ele>
        <time>2017-01-15T09:43:00Z</time>
      </trkpt>
      <trkpt lat="47.9406" lon="-3.46476">
        <ele>41</ele>
        <time>2017-01-15T09:45:00Z</time>
      </trkpt>
      <trkpt lat="47.94043" lon="-3.46486">
        <ele>40</ele>
        <time>2017-01-15T09:47:00Z</time>
      </trkpt>
      <trkpt lat="47.9406" lon="-3.46476">
        <ele>41</ele>
        <time>2017-01-15T09:49:00Z</time>
      </trkpt>
      <trkpt lat="47.94054" lon="-3.46453">
        <ele>42</ele>
        <time>2017-01-15T09:51:00Z</time>
      </trkpt>
      <trkpt lat="47.94052" lon="-3.46428">
        <ele>43</ele>
        <time>2017-01-15T09:53:00Z</time>
      </trkpt>
      <trkpt lat="47.94052" lon="-3.46344">
        <ele>50</ele>
        <time>2017-01-15T09:55:00Z</time>
      </trkpt>
      <trkpt lat="47.94047" lon="-3.46297">
        <ele>52</ele>
        <time>2017-01-15T09:57:00Z</time>
      </trkpt>
      <trkpt lat="47.94047" lon="-3.46292">
        <ele>52</ele>
        <time>2017-01-15T09:59:00Z</time>
      </trkpt>
      <trkpt lat="47.94045" lon="-3.46275">
        <ele>52</ele>
        <time>2017-01-15T10:01:00Z</time>
      </trkpt>
      <trkpt lat="47.94043" lon="-3.46243">
        <ele>54</ele>
        <time>2017-01-15T10:03:00Z</time>
      </trkpt>
      <trkpt lat="47.94039" lon="-3.4624">
        <ele>53</ele>
        <time>2017-01-15T10:05:00Z</time>
      </trkpt>
      <trkpt lat="47.94043" lon="-3.4624">
        <ele>54</ele>
        <time>2017-01-15T10:07:00Z</time>
      </trkpt>
      <trkpt lat="47.94043" lon="-3.462">
        <ele>57</ele>
        <time>2017-01-15T10:09:00Z</time>
      </trkpt>
      <trkpt lat="47.94034" lon="-3.46119">
        <ele>61</ele>
        <time>2017-01-15T10:11:00Z</time>
      </trkpt>
      <trkpt lat="47.94034" lon="-3.46003">
        <ele>66</ele>
        <time>2017-01-15T10:13:00Z</time>
      </trkpt>
      <trkpt lat="47.9403" lon="-3.45934">
        <ele>66</ele>
        <time>2017-01-15T10:15:00Z</time>
      </trkpt>
      <trkpt lat="47.9403" lon="-3.45898">
        <ele>66</ele>
        <time>2017-01-15T10:17:00Z</time>
      </trkpt>
      <trkpt lat="47.94032" lon="-3.45887">
        <ele>65</ele>
        <time>2017-01-15T10:19:00Z</time>
      </trkpt>
      <trkpt lat="47.94037" lon="-3.45915">
        <ele>66</ele>
        <time>2017-01-15T10:21:00Z</time>
      </trkpt>
      <trkpt lat="47.94038" lon="-3.45935">
        <ele>66</ele>
        <time>2017-01-15T10:23:00Z</time>
      </trkpt>
      <trkpt lat="47.94049" lon="-3.45933">
        <ele>67</ele>
        <time>2017-01-15T10:25:00Z</time>
      </trkpt>
      <trkpt lat="47.94038" lon="-3.45935">
        <ele>66</ele>
        <time>2017-01-15T10:27:00Z</time>
      </trkpt>
      <trkpt lat="47.94037" lon="-3.45915">
        <ele>66</ele>
        <time>2017-01-15T10:29:00Z</time>
      </trkpt>
      <trkpt lat="47.94032" lon="-3.45887">
        <ele>65</ele>
        <time>2017-01-15T10:31:00Z</time>
      </trkpt>
      <trkpt lat="47.94037" lon="-3.4585">
        <ele>64</ele>
        <time>2017-01-15T10:33:00Z</time>
      </trkpt>
      <trkpt lat="47.94039" lon="-3.45816">
        <ele>64</ele>
        <time>2017-01-15T10:35:00Z</time>
      </trkpt>
      <trkpt lat="47.94039" lon="-3.4581">
        <ele>64</ele>
        <time>2017-01-15T10:37:00Z</time>
      </trkpt>
      <trkpt lat="47.94041" lon="-3.45786">
        <ele>64</ele>
        <time>2017-01-15T10:39:00Z</time>
      </trkpt>
      <trkpt lat="47.94041" lon="-3.45711">
        <ele>66</ele>
        <time>2017-01-15T10:41:00Z</time>
      </trkpt>
      <trkpt lat="47.9403" lon="-3.45653">
        <ele>70</ele>
        <time>2017-01-15T10:43:00Z</time>
      </trkpt>
      <trkpt lat="47.94024" lon="-3.45629">
        <ele>73</ele>
        <time>2017-01-15T10:45:00Z</time>
      </trkpt>
      <trkpt lat="47.94022" lon="-3.45625">
        <ele>73</ele>
        <time>2017-01-15T10:47:00Z</time>
      </trkpt>
      <trkpt lat="47.94011" lon="-3.45599">
        <ele>76</ele>
        <time>2017-01-15T10:49:00Z</time>
      </trkpt>
      <trkpt lat="47.93938" lon="-3.45503">
        <ele>84</ele>
        <time>2017-01-15T10:51:00Z</time>
      </trkpt>
      <trkpt lat="47.93929" lon="-3.4549">
        <ele>84</ele>
        <time>2017-01-15T10:53:00Z</time>
      </trkpt>
      <trkpt lat="47.93921" lon="-3.45471">
        <ele>84</ele>
        <time>2017-01-15T10:55:00Z</time>
      </trkpt>
      <trkpt lat="47.93919" lon="-3.45464">
        <ele>84</ele>
        <time>2017-01-15T10:57:00Z</time>
      </trkpt>
      <trkpt lat="47.93912" lon="-3.45438">
        <ele>84</ele>
        <time>2017-01-15T10:59:00Z</time>
      </trkpt>
      <trkpt lat="47.93912" lon="-3.45381">
        <ele>84</ele>
        <time>2017-01-15T11:01:00Z</time>
      </trkpt>
      <trkpt lat="47.93919" lon="-3.45288">
        <ele>83</ele>
        <time>2017-01-15T11:03:00Z</time>
      </trkpt>
      <trkpt lat="47.93938" lon="-3.45102">
        <ele>87</ele>
        <time>2017-01-15T11:05:00Z</time>
      </trkpt>
      <trkpt lat="47.93955" lon="-3.44981">
        <ele>92</ele>
        <time>2017-01-15T11:07:00Z</time>
      </trkpt>
      <trkpt lat="47.93957" lon="-3.44962">
        <ele>92</ele>
        <time>2017-01-15T11:09:00Z</time>
      </trkpt>
      <trkpt lat="47.93964" lon="-3.44889">
        <ele>93</ele>
        <time>2017-01-15T11:11:00Z</time>
      </trkpt>
      <trkpt lat="47.93962" lon="-3.44887">
        <ele>93</ele>
        <time>2017-01-15T11:13:00Z</time>
      </trkpt>
    </trkseg>
  </trk>
</gpx>